﻿<?xml version="1.0" encoding="utf-8"?><gpx creator="Garmin Desktop App" version="1.1" xsi:schemaLocation="http://www.topografix.com/GPX/1/1 http://www.topografix.com/GPX/1/1/gpx.xsd http://www.garmin.com/xmlschemas/WaypointExtension/v1 http://www8.garmin.com/xmlschemas/WaypointExtensionv1.xsd http://www.garmin.com/xmlschemas/TrackPointExtension/v1 http://www.garmin.com/xmlschemas/TrackPointExtensionv1.xsd http://www.garmin.com/xmlschemas/GpxExtensions/v3 http://www8.garmin.com/xmlschemas/GpxExtensionsv3.xsd http://www.garmin.com/xmlschemas/ActivityExtension/v1 http://www8.garmin.com/xmlschemas/ActivityExtensionv1.xsd http://www.garmin.com/xmlschemas/AdventuresExtensions/v1 http://www8.garmin.com/xmlschemas/AdventuresExtensionv1.xsd http://www.garmin.com/xmlschemas/PressureExtension/v1 http://www.garmin.com/xmlschemas/PressureExtensionv1.xsd http://www.garmin.com/xmlschemas/TripExtensions/v1 http://www.garmin.com/xmlschemas/TripExtensionsv1.xsd http://www.garmin.com/xmlschemas/TripMetaDataExtensions/v1 http://www.garmin.com/xmlschemas/TripMetaDataExtensionsv1.xsd http://www.garmin.com/xmlschemas/ViaPointTransportationModeExtensions/v1 http://www.garmin.com/xmlschemas/ViaPointTransportationModeExtensionsv1.xsd http://www.garmin.com/xmlschemas/CreationTimeExtension/v1 http://www.garmin.com/xmlschemas/CreationTimeExtensionsv1.xsd http://www.garmin.com/xmlschemas/AccelerationExtension/v1 http://www.garmin.com/xmlschemas/AccelerationExtensionv1.xsd http://www.garmin.com/xmlschemas/PowerExtension/v1 http://www.garmin.com/xmlschemas/PowerExtensionv1.xsd http://www.garmin.com/xmlschemas/VideoExtension/v1 http://www.garmin.com/xmlschemas/VideoExtensionv1.xsd" xmlns="http://www.topografix.com/GPX/1/1" xmlns:xsi="http://www.w3.org/2001/XMLSchema-instance" xmlns:wptx1="http://www.garmin.com/xmlschemas/WaypointExtension/v1" xmlns:gpxtrx="http://www.garmin.com/xmlschemas/GpxExtensions/v3" xmlns:gpxtpx="http://www.garmin.com/xmlschemas/TrackPointExtension/v1" xmlns:gpxx="http://www.garmin.com/xmlschemas/GpxExtensions/v3" xmlns:trp="http://www.garmin.com/xmlschemas/TripExtensions/v1" xmlns:adv="http://www.garmin.com/xmlschemas/AdventuresExtensions/v1" xmlns:prs="http://www.garmin.com/xmlschemas/PressureExtension/v1" xmlns:tmd="http://www.garmin.com/xmlschemas/TripMetaDataExtensions/v1" xmlns:vptm="http://www.garmin.com/xmlschemas/ViaPointTransportationModeExtensions/v1" xmlns:ctx="http://www.garmin.com/xmlschemas/CreationTimeExtension/v1" xmlns:gpxacc="http://www.garmin.com/xmlschemas/AccelerationExtension/v1" xmlns:gpxpx="http://www.garmin.com/xmlschemas/PowerExtension/v1" xmlns:vidx1="http://www.garmin.com/xmlschemas/VideoExtension/v1">

  <metadata>
    <link href="http://www.garmin.com">
      <text>Garmin International</text>
    </link>
    <time>2014-08-25T13:36:00Z</time>
    <bounds maxlat="68.91339766792953" maxlon="27.010642820969224" minlat="68.883144110441208" minlon="26.877167718484998" />
  </metadata>

  <trk>
    <name>test-nur-otsamo-testversion</name>
    <extensions>
      <gpxx:TrackExtension>
        <gpxx:DisplayColor>Cyan</gpxx:DisplayColor>
      </gpxx:TrackExtension>
    </extensions>
    <trkseg>
      <trkpt lat="68.884992823004723" lon="26.877167718484998">
        <ele>84.730000000000004</ele>
        <time>2014-07-21T10:07:22Z</time>
      </trkpt>
      <trkpt lat="68.884993158280849" lon="26.877170149236917">
        <ele>84.730000000000004</ele>
        <time>2014-07-21T10:07:23Z</time>
      </trkpt>
      <trkpt lat="68.884992320090532" lon="26.877176184207201">
        <ele>84.730000000000004</ele>
        <time>2014-07-21T10:07:24Z</time>
      </trkpt>
      <trkpt lat="68.88495996594429" lon="26.877318173646927">
        <ele>85.209999999999994</ele>
        <time>2014-07-21T10:07:37Z</time>
      </trkpt>
      <trkpt lat="68.884955104440451" lon="26.877359915524721">
        <ele>85.209999999999994</ele>
        <time>2014-07-21T10:07:39Z</time>
      </trkpt>
      <trkpt lat="68.884878074750304" lon="26.877715392038226">
        <ele>86.180000000000007</ele>
        <time>2014-07-21T10:07:53Z</time>
      </trkpt>
      <trkpt lat="68.884843708947301" lon="26.877898452803493">
        <ele>87.140000000000001</ele>
        <time>2014-07-21T10:08:06Z</time>
      </trkpt>
      <trkpt lat="68.884782521054149" lon="26.878243619576097">
        <ele>88.579999999999998</ele>
        <time>2014-07-21T10:08:22Z</time>
      </trkpt>
      <trkpt lat="68.884693002328277" lon="26.878729518502951">
        <ele>89.540000000000006</ele>
        <time>2014-07-21T10:08:39Z</time>
      </trkpt>
      <trkpt lat="68.884667605161667" lon="26.878996649757028">
        <ele>90.5</ele>
        <time>2014-07-21T10:08:52Z</time>
      </trkpt>
      <trkpt lat="68.884583450853825" lon="26.879267301410437">
        <ele>90.980000000000004</ele>
        <time>2014-07-21T10:09:07Z</time>
      </trkpt>
      <trkpt lat="68.884550258517265" lon="26.879426222294569">
        <ele>90.5</ele>
        <time>2014-07-21T10:09:21Z</time>
      </trkpt>
      <trkpt lat="68.884503906592727" lon="26.879713302478194">
        <ele>90.980000000000004</ele>
        <time>2014-07-21T10:09:30Z</time>
      </trkpt>
      <trkpt lat="68.884468283504248" lon="26.879833415150642">
        <ele>90.980000000000004</ele>
        <time>2014-07-21T10:09:34Z</time>
      </trkpt>
      <trkpt lat="68.884396618232131" lon="26.88029944896698">
        <ele>91.459999999999994</ele>
        <time>2014-07-21T10:09:48Z</time>
      </trkpt>
      <trkpt lat="68.884392511099577" lon="26.880470104515553">
        <ele>91.459999999999994</ele>
        <time>2014-07-21T10:09:53Z</time>
      </trkpt>
      <trkpt lat="68.884361749514937" lon="26.880882326513529">
        <ele>90.5</ele>
        <time>2014-07-21T10:10:08Z</time>
      </trkpt>
      <trkpt lat="68.884323528036475" lon="26.881138561293483">
        <ele>90.5</ele>
        <time>2014-07-21T10:10:21Z</time>
      </trkpt>
      <trkpt lat="68.884317576885223" lon="26.881231684237719">
        <ele>90.019999999999996</ele>
        <time>2014-07-21T10:10:24Z</time>
      </trkpt>
      <trkpt lat="68.884325120598078" lon="26.881344839930534">
        <ele>89.540000000000006</ele>
        <time>2014-07-21T10:10:28Z</time>
      </trkpt>
      <trkpt lat="68.884287904947996" lon="26.881651785224676">
        <ele>90.019999999999996</ele>
        <time>2014-07-21T10:10:38Z</time>
      </trkpt>
      <trkpt lat="68.884217916056514" lon="26.882024528458714">
        <ele>90.019999999999996</ele>
        <time>2014-07-21T10:10:51Z</time>
      </trkpt>
      <trkpt lat="68.884215233847499" lon="26.882088063284755">
        <ele>90.019999999999996</ele>
        <time>2014-07-21T10:10:53Z</time>
      </trkpt>
      <trkpt lat="68.88417910784483" lon="26.882445970550179">
        <ele>88.579999999999998</ele>
        <time>2014-07-21T10:11:07Z</time>
      </trkpt>
      <trkpt lat="68.884179024025798" lon="26.882800525054336">
        <ele>90.019999999999996</ele>
        <time>2014-07-21T10:11:21Z</time>
      </trkpt>
      <trkpt lat="68.884138790890574" lon="26.883233617991209">
        <ele>90.019999999999996</ele>
        <time>2014-07-21T10:11:37Z</time>
      </trkpt>
      <trkpt lat="68.88412588275969" lon="26.883735777810216">
        <ele>90.5</ele>
        <time>2014-07-21T10:11:53Z</time>
      </trkpt>
      <trkpt lat="68.884086571633816" lon="26.884099887683988">
        <ele>89.540000000000006</ele>
        <time>2014-07-21T10:12:06Z</time>
      </trkpt>
      <trkpt lat="68.88405161909759" lon="26.884431727230549">
        <ele>90.980000000000004</ele>
        <time>2014-07-21T10:12:19Z</time>
      </trkpt>
      <trkpt lat="68.884014822542667" lon="26.884822240099311">
        <ele>90.980000000000004</ele>
        <time>2014-07-21T10:12:32Z</time>
      </trkpt>
      <trkpt lat="68.883990850299597" lon="26.885119462385774">
        <ele>90.5</ele>
        <time>2014-07-21T10:12:47Z</time>
      </trkpt>
      <trkpt lat="68.883984731510282" lon="26.885178722441196">
        <ele>90.980000000000004</ele>
        <time>2014-07-21T10:12:51Z</time>
      </trkpt>
      <trkpt lat="68.883969644084573" lon="26.885292883962393">
        <ele>90.019999999999996</ele>
        <time>2014-07-21T10:12:56Z</time>
      </trkpt>
      <trkpt lat="68.884006943553686" lon="26.885590692982078">
        <ele>90.019999999999996</ele>
        <time>2014-07-21T10:13:08Z</time>
      </trkpt>
      <trkpt lat="68.883983222767711" lon="26.885826559737325">
        <ele>90.019999999999996</ele>
        <time>2014-07-21T10:13:20Z</time>
      </trkpt>
      <trkpt lat="68.883972661569715" lon="26.886003920808434">
        <ele>89.540000000000006</ele>
        <time>2014-07-21T10:13:31Z</time>
      </trkpt>
      <trkpt lat="68.883949695155025" lon="26.886442461982369">
        <ele>88.579999999999998</ele>
        <time>2014-07-21T10:13:44Z</time>
      </trkpt>
      <trkpt lat="68.883938295766711" lon="26.886532567441463">
        <ele>88.099999999999994</ele>
        <time>2014-07-21T10:13:48Z</time>
      </trkpt>
      <trkpt lat="68.883924214169383" lon="26.886742953211069">
        <ele>87.620000000000005</ele>
        <time>2014-07-21T10:13:55Z</time>
      </trkpt>
      <trkpt lat="68.883931338787079" lon="26.886805817484856">
        <ele>88.099999999999994</ele>
        <time>2014-07-21T10:13:57Z</time>
      </trkpt>
      <trkpt lat="68.88393091969192" lon="26.886999774724245">
        <ele>87.140000000000001</ele>
        <time>2014-07-21T10:14:03Z</time>
      </trkpt>
      <trkpt lat="68.883888591080904" lon="26.887478046119213">
        <ele>87.620000000000005</ele>
        <time>2014-07-21T10:14:20Z</time>
      </trkpt>
      <trkpt lat="68.88386394828558" lon="26.887911222875118">
        <ele>86.659999999999997</ele>
        <time>2014-07-21T10:14:35Z</time>
      </trkpt>
      <trkpt lat="68.883842909708619" lon="26.888186149299145">
        <ele>86.180000000000007</ele>
        <time>2014-07-21T10:14:44Z</time>
      </trkpt>
      <trkpt lat="68.883805610239506" lon="26.888679508119822">
        <ele>87.140000000000001</ele>
        <time>2014-07-21T10:15:00Z</time>
      </trkpt>
      <trkpt lat="68.883799239993095" lon="26.88910698518157">
        <ele>88.099999999999994</ele>
        <time>2014-07-21T10:15:16Z</time>
      </trkpt>
      <trkpt lat="68.883780464529991" lon="26.889311671257019">
        <ele>88.099999999999994</ele>
        <time>2014-07-21T10:15:23Z</time>
      </trkpt>
      <trkpt lat="68.883751463145018" lon="26.889684246852994">
        <ele>88.579999999999998</ele>
        <time>2014-07-21T10:15:40Z</time>
      </trkpt>
      <trkpt lat="68.883743332698941" lon="26.889845011755824">
        <ele>87.620000000000005</ele>
        <time>2014-07-21T10:15:45Z</time>
      </trkpt>
      <trkpt lat="68.883744506165385" lon="26.889995718374848">
        <ele>87.140000000000001</ele>
        <time>2014-07-21T10:15:50Z</time>
      </trkpt>
      <trkpt lat="68.883673008531332" lon="26.890396373346448">
        <ele>87.620000000000005</ele>
        <time>2014-07-21T10:16:05Z</time>
      </trkpt>
      <trkpt lat="68.883646689355373" lon="26.890331413596869">
        <ele>88.099999999999994</ele>
        <time>2014-07-21T10:16:15Z</time>
      </trkpt>
      <trkpt lat="68.883636295795441" lon="26.89053769223392">
        <ele>88.579999999999998</ele>
        <time>2014-07-21T10:16:28Z</time>
      </trkpt>
      <trkpt lat="68.88361869379878" lon="26.890784874558449">
        <ele>88.099999999999994</ele>
        <time>2014-07-21T10:16:37Z</time>
      </trkpt>
      <trkpt lat="68.883653646335006" lon="26.891189888119698">
        <ele>89.060000000000002</ele>
        <time>2014-07-21T10:16:52Z</time>
      </trkpt>
      <trkpt lat="68.88363772071898" lon="26.891329111531377">
        <ele>89.060000000000002</ele>
        <time>2014-07-21T10:16:58Z</time>
      </trkpt>
      <trkpt lat="68.883645180612803" lon="26.891550896689296">
        <ele>89.060000000000002</ele>
        <time>2014-07-21T10:17:06Z</time>
      </trkpt>
      <trkpt lat="68.883648784831166" lon="26.891720462590456">
        <ele>89.540000000000006</ele>
        <time>2014-07-21T10:17:12Z</time>
      </trkpt>
      <trkpt lat="68.883628835901618" lon="26.891891788691282">
        <ele>89.060000000000002</ele>
        <time>2014-07-21T10:17:18Z</time>
      </trkpt>
      <trkpt lat="68.883559098467231" lon="26.892241984605789">
        <ele>89.540000000000006</ele>
        <time>2014-07-21T10:17:32Z</time>
      </trkpt>
      <trkpt lat="68.883547782897949" lon="26.892351116985083">
        <ele>89.540000000000006</ele>
        <time>2014-07-21T10:17:36Z</time>
      </trkpt>
      <trkpt lat="68.883477123454213" lon="26.892658649012446">
        <ele>89.540000000000006</ele>
        <time>2014-07-21T10:17:50Z</time>
      </trkpt>
      <trkpt lat="68.883456587791443" lon="26.892695613205433">
        <ele>90.019999999999996</ele>
        <time>2014-07-21T10:17:53Z</time>
      </trkpt>
      <trkpt lat="68.883421048521996" lon="26.892884541302919">
        <ele>90.019999999999996</ele>
        <time>2014-07-21T10:18:03Z</time>
      </trkpt>
      <trkpt lat="68.88339095748961" lon="26.893229875713587">
        <ele>90.5</ele>
        <time>2014-07-21T10:18:17Z</time>
      </trkpt>
      <trkpt lat="68.883364303037524" lon="26.893690461292863">
        <ele>90.5</ele>
        <time>2014-07-21T10:18:33Z</time>
      </trkpt>
      <trkpt lat="68.883339995518327" lon="26.89401182346046">
        <ele>91.459999999999994</ele>
        <time>2014-07-21T10:18:46Z</time>
      </trkpt>
      <trkpt lat="68.883334547281265" lon="26.894206618890166">
        <ele>92.420000000000002</ele>
        <time>2014-07-21T10:18:53Z</time>
      </trkpt>
      <trkpt lat="68.883334631100297" lon="26.894374173134565">
        <ele>92.420000000000002</ele>
        <time>2014-07-21T10:18:59Z</time>
      </trkpt>
      <trkpt lat="68.883337648585439" lon="26.894577518105507">
        <ele>92.420000000000002</ele>
        <time>2014-07-21T10:19:06Z</time>
      </trkpt>
      <trkpt lat="68.8833621237427" lon="26.894888486713171">
        <ele>93.390000000000001</ele>
        <time>2014-07-21T10:19:19Z</time>
      </trkpt>
      <trkpt lat="68.883362878113985" lon="26.894922936335206">
        <ele>93.390000000000001</ele>
        <time>2014-07-21T10:19:20Z</time>
      </trkpt>
      <trkpt lat="68.883371176198125" lon="26.895186463370919">
        <ele>92.900000000000006</ele>
        <time>2014-07-21T10:19:29Z</time>
      </trkpt>
      <trkpt lat="68.883336391299963" lon="26.895454181358218">
        <ele>92.900000000000006</ele>
        <time>2014-07-21T10:19:38Z</time>
      </trkpt>
      <trkpt lat="68.883316274732351" lon="26.89566875807941">
        <ele>92.900000000000006</ele>
        <time>2014-07-21T10:19:46Z</time>
      </trkpt>
      <trkpt lat="68.883213931694627" lon="26.896096905693412">
        <ele>93.390000000000001</ele>
        <time>2014-07-21T10:20:02Z</time>
      </trkpt>
      <trkpt lat="68.883188450708985" lon="26.896264040842652">
        <ele>93.870000000000005</ele>
        <time>2014-07-21T10:20:08Z</time>
      </trkpt>
      <trkpt lat="68.883245028555393" lon="26.896601160988212">
        <ele>94.829999999999998</ele>
        <time>2014-07-21T10:20:22Z</time>
      </trkpt>
      <trkpt lat="68.883218541741371" lon="26.896954625844955">
        <ele>94.349999999999994</ele>
        <time>2014-07-21T10:20:35Z</time>
      </trkpt>
      <trkpt lat="68.883220218122005" lon="26.897377073764801">
        <ele>94.349999999999994</ele>
        <time>2014-07-21T10:20:50Z</time>
      </trkpt>
      <trkpt lat="68.883206723257899" lon="26.897509340196848">
        <ele>94.829999999999998</ele>
        <time>2014-07-21T10:20:56Z</time>
      </trkpt>
      <trkpt lat="68.88319649733603" lon="26.897869510576129">
        <ele>96.269999999999996</ele>
        <time>2014-07-21T10:21:12Z</time>
      </trkpt>
      <trkpt lat="68.883208483457565" lon="26.898218784481287">
        <ele>96.75</ele>
        <time>2014-07-21T10:21:26Z</time>
      </trkpt>
      <trkpt lat="68.883188869804144" lon="26.898651542142034">
        <ele>96.75</ele>
        <time>2014-07-21T10:21:40Z</time>
      </trkpt>
      <trkpt lat="68.883187780156732" lon="26.898679537698627">
        <ele>97.709999999999994</ele>
        <time>2014-07-21T10:21:41Z</time>
      </trkpt>
      <trkpt lat="68.883165568113327" lon="26.899032667279243">
        <ele>97.709999999999994</ele>
        <time>2014-07-21T10:21:53Z</time>
      </trkpt>
      <trkpt lat="68.883144110441208" lon="26.899406164884567">
        <ele>97.230000000000004</ele>
        <time>2014-07-21T10:22:04Z</time>
      </trkpt>
      <trkpt lat="68.883175207301974" lon="26.899779662489891">
        <ele>97.230000000000004</ele>
        <time>2014-07-21T10:22:13Z</time>
      </trkpt>
      <trkpt lat="68.883224073797464" lon="26.900086859241128">
        <ele>97.709999999999994</ele>
        <time>2014-07-21T10:22:22Z</time>
      </trkpt>
      <trkpt lat="68.883205717429519" lon="26.900178305804729">
        <ele>97.230000000000004</ele>
        <time>2014-07-21T10:22:25Z</time>
      </trkpt>
      <trkpt lat="68.883229019120336" lon="26.900591785088181">
        <ele>97.230000000000004</ele>
        <time>2014-07-21T10:22:39Z</time>
      </trkpt>
      <trkpt lat="68.883255673572421" lon="26.900983639061451">
        <ele>97.230000000000004</ele>
        <time>2014-07-21T10:22:51Z</time>
      </trkpt>
      <trkpt lat="68.883278472349048" lon="26.901274658739567">
        <ele>95.790000000000006</ele>
        <time>2014-07-21T10:23:06Z</time>
      </trkpt>
      <trkpt lat="68.883294817060232" lon="26.901327213272452">
        <ele>97.709999999999994</ele>
        <time>2014-07-21T10:23:23Z</time>
      </trkpt>
      <trkpt lat="68.883295822888613" lon="26.901324363425374">
        <ele>97.709999999999994</ele>
        <time>2014-07-21T10:23:38Z</time>
      </trkpt>
      <trkpt lat="68.883312335237861" lon="26.901443218812346">
        <ele>97.230000000000004</ele>
        <time>2014-07-21T10:23:55Z</time>
      </trkpt>
      <trkpt lat="68.883343432098627" lon="26.901698363944888">
        <ele>97.230000000000004</ele>
        <time>2014-07-21T10:24:09Z</time>
      </trkpt>
      <trkpt lat="68.883330440148711" lon="26.902043195441365">
        <ele>97.709999999999994</ele>
        <time>2014-07-21T10:24:23Z</time>
      </trkpt>
      <trkpt lat="68.883311245590448" lon="26.902226926758885">
        <ele>97.709999999999994</ele>
        <time>2014-07-21T10:24:29Z</time>
      </trkpt>
      <trkpt lat="68.883220050483942" lon="26.902636969462037">
        <ele>98.670000000000002</ele>
        <time>2014-07-21T10:24:44Z</time>
      </trkpt>
      <trkpt lat="68.883217116817832" lon="26.903059585019946">
        <ele>99.150000000000006</ele>
        <time>2014-07-21T10:25:01Z</time>
      </trkpt>
      <trkpt lat="68.883220134302974" lon="26.903318502008915">
        <ele>99.150000000000006</ele>
        <time>2014-07-21T10:25:14Z</time>
      </trkpt>
      <trkpt lat="68.883230024948716" lon="26.903561241924763">
        <ele>99.150000000000006</ele>
        <time>2014-07-21T10:25:22Z</time>
      </trkpt>
      <trkpt lat="68.883230946958065" lon="26.90401746891439">
        <ele>98.189999999999998</ele>
        <time>2014-07-21T10:25:40Z</time>
      </trkpt>
      <trkpt lat="68.883278556168079" lon="26.904408987611532">
        <ele>99.150000000000006</ele>
        <time>2014-07-21T10:25:54Z</time>
      </trkpt>
      <trkpt lat="68.883275035768747" lon="26.904751220718026">
        <ele>98.670000000000002</ele>
        <time>2014-07-21T10:26:07Z</time>
      </trkpt>
      <trkpt lat="68.883269922807813" lon="26.904771169647574">
        <ele>99.150000000000006</ele>
        <time>2014-07-21T10:26:08Z</time>
      </trkpt>
      <trkpt lat="68.883242513984442" lon="26.905115665867925">
        <ele>99.629999999999995</ele>
        <time>2014-07-21T10:26:24Z</time>
      </trkpt>
      <trkpt lat="68.883361201733351" lon="26.905144667252898">
        <ele>100.11</ele>
        <time>2014-07-21T10:26:39Z</time>
      </trkpt>
      <trkpt lat="68.8833880238235" lon="26.905241310596466">
        <ele>100.59999999999999</ele>
        <time>2014-07-21T10:26:43Z</time>
      </trkpt>
      <trkpt lat="68.883421802893281" lon="26.905332170426846">
        <ele>100.11</ele>
        <time>2014-07-21T10:26:47Z</time>
      </trkpt>
      <trkpt lat="68.883429178968072" lon="26.905388077721">
        <ele>100.59999999999999</ele>
        <time>2014-07-21T10:26:49Z</time>
      </trkpt>
      <trkpt lat="68.883433034643531" lon="26.905458820983768">
        <ele>100.11</ele>
        <time>2014-07-21T10:26:51Z</time>
      </trkpt>
      <trkpt lat="68.883473603054881" lon="26.905786469578743">
        <ele>100.11</ele>
        <time>2014-07-21T10:27:01Z</time>
      </trkpt>
      <trkpt lat="68.883524565026164" lon="26.90626616589725">
        <ele>100.11</ele>
        <time>2014-07-21T10:27:16Z</time>
      </trkpt>
      <trkpt lat="68.883539736270905" lon="26.906738821417093">
        <ele>100.11</ele>
        <time>2014-07-21T10:27:31Z</time>
      </trkpt>
      <trkpt lat="68.883553231135011" lon="26.906972341239452">
        <ele>100.11</ele>
        <time>2014-07-21T10:27:38Z</time>
      </trkpt>
      <trkpt lat="68.883610228076577" lon="26.90728398039937">
        <ele>100.59999999999999</ele>
        <time>2014-07-21T10:27:49Z</time>
      </trkpt>
      <trkpt lat="68.883642498403788" lon="26.907782033085823">
        <ele>101.08</ele>
        <time>2014-07-21T10:28:05Z</time>
      </trkpt>
      <trkpt lat="68.883673092350364" lon="26.908188974484801">
        <ele>101.56</ele>
        <time>2014-07-21T10:28:19Z</time>
      </trkpt>
      <trkpt lat="68.883694130927324" lon="26.908402293920517">
        <ele>101.08</ele>
        <time>2014-07-21T10:28:26Z</time>
      </trkpt>
      <trkpt lat="68.883709637448192" lon="26.908776294440031">
        <ele>102.04000000000001</ele>
        <time>2014-07-21T10:28:39Z</time>
      </trkpt>
      <trkpt lat="68.88372614979744" lon="26.909107714891434">
        <ele>101.56</ele>
        <time>2014-07-21T10:28:51Z</time>
      </trkpt>
      <trkpt lat="68.883761521428823" lon="26.909553799778223">
        <ele>102.04000000000001</ele>
        <time>2014-07-21T10:29:06Z</time>
      </trkpt>
      <trkpt lat="68.883765963837504" lon="26.909641977399588">
        <ele>102.04000000000001</ele>
        <time>2014-07-21T10:29:09Z</time>
      </trkpt>
      <trkpt lat="68.883799659088254" lon="26.909932410344481">
        <ele>102.04000000000001</ele>
        <time>2014-07-21T10:29:19Z</time>
      </trkpt>
      <trkpt lat="68.883829331025481" lon="26.910386960953474">
        <ele>102.04000000000001</ele>
        <time>2014-07-21T10:29:37Z</time>
      </trkpt>
      <trkpt lat="68.88389521278441" lon="26.910731708630919">
        <ele>102.52</ele>
        <time>2014-07-21T10:29:53Z</time>
      </trkpt>
      <trkpt lat="68.883953634649515" lon="26.911086095497012">
        <ele>103</ele>
        <time>2014-07-21T10:30:09Z</time>
      </trkpt>
      <trkpt lat="68.883990598842502" lon="26.911568390205503">
        <ele>103</ele>
        <time>2014-07-21T10:30:27Z</time>
      </trkpt>
      <trkpt lat="68.884006440639496" lon="26.911965860053897">
        <ele>103.95999999999999</ele>
        <time>2014-07-21T10:30:41Z</time>
      </trkpt>
      <trkpt lat="68.88405941426754" lon="26.912294430658221">
        <ele>104.44</ele>
        <time>2014-07-21T10:30:56Z</time>
      </trkpt>
      <trkpt lat="68.884200062602758" lon="26.91247221082449">
        <ele>105.40000000000001</ele>
        <time>2014-07-21T10:31:14Z</time>
      </trkpt>
      <trkpt lat="68.884324617683887" lon="26.91261637955904">
        <ele>105.88</ele>
        <time>2014-07-21T10:31:31Z</time>
      </trkpt>
      <trkpt lat="68.884442299604416" lon="26.912902370095253">
        <ele>106.36</ele>
        <time>2014-07-21T10:31:46Z</time>
      </trkpt>
      <trkpt lat="68.88456123881042" lon="26.913142511621118">
        <ele>106.84</ele>
        <time>2014-07-21T10:32:01Z</time>
      </trkpt>
      <trkpt lat="68.884644135832787" lon="26.913471501320601">
        <ele>107.31999999999999</ele>
        <time>2014-07-21T10:32:15Z</time>
      </trkpt>
      <trkpt lat="68.884708257392049" lon="26.913635116070509">
        <ele>107.81</ele>
        <time>2014-07-21T10:32:24Z</time>
      </trkpt>
      <trkpt lat="68.884739521890879" lon="26.913670320063829">
        <ele>107.31999999999999</ele>
        <time>2014-07-21T10:32:27Z</time>
      </trkpt>
      <trkpt lat="68.884798362851143" lon="26.913832509890199">
        <ele>107.31999999999999</ele>
        <time>2014-07-21T10:32:34Z</time>
      </trkpt>
      <trkpt lat="68.884926605969667" lon="26.914137443527579">
        <ele>107.81</ele>
        <time>2014-07-21T10:32:50Z</time>
      </trkpt>
      <trkpt lat="68.885054513812065" lon="26.914474228397012">
        <ele>107.31999999999999</ele>
        <time>2014-07-21T10:33:06Z</time>
      </trkpt>
      <trkpt lat="68.885139171034098" lon="26.914690146222711">
        <ele>107.31999999999999</ele>
        <time>2014-07-21T10:33:16Z</time>
      </trkpt>
      <trkpt lat="68.885277137160301" lon="26.914957948029041">
        <ele>108.29000000000001</ele>
        <time>2014-07-21T10:33:32Z</time>
      </trkpt>
      <trkpt lat="68.885392053052783" lon="26.915245028212667">
        <ele>108.77</ele>
        <time>2014-07-21T10:33:48Z</time>
      </trkpt>
      <trkpt lat="68.8854671549052" lon="26.915517020970583">
        <ele>108.77</ele>
        <time>2014-07-21T10:34:01Z</time>
      </trkpt>
      <trkpt lat="68.885579220950603" lon="26.915725646540523">
        <ele>109.73</ele>
        <time>2014-07-21T10:34:16Z</time>
      </trkpt>
      <trkpt lat="68.885690700262785" lon="26.915881801396608">
        <ele>109.73</ele>
        <time>2014-07-21T10:34:30Z</time>
      </trkpt>
      <trkpt lat="68.885748032480478" lon="26.91606511361897">
        <ele>110.69</ele>
        <time>2014-07-21T10:34:39Z</time>
      </trkpt>
      <trkpt lat="68.885776866227388" lon="26.916374154388905">
        <ele>110.69</ele>
        <time>2014-07-21T10:34:51Z</time>
      </trkpt>
      <trkpt lat="68.885873928666115" lon="26.916671795770526">
        <ele>110.69</ele>
        <time>2014-07-21T10:35:06Z</time>
      </trkpt>
      <trkpt lat="68.885932685807347" lon="26.916743377223611">
        <ele>111.17</ele>
        <time>2014-07-21T10:35:13Z</time>
      </trkpt>
      <trkpt lat="68.885955400764942" lon="26.916808588430285">
        <ele>111.17</ele>
        <time>2014-07-21T10:35:16Z</time>
      </trkpt>
      <trkpt lat="68.886035783216357" lon="26.917027104645967">
        <ele>111.65000000000001</ele>
        <time>2014-07-21T10:35:26Z</time>
      </trkpt>
      <trkpt lat="68.886092193424702" lon="26.917161718010902">
        <ele>111.65000000000001</ele>
        <time>2014-07-21T10:35:33Z</time>
      </trkpt>
      <trkpt lat="68.886242145672441" lon="26.917533120140433">
        <ele>112.61</ele>
        <time>2014-07-21T10:35:52Z</time>
      </trkpt>
      <trkpt lat="68.886344907805324" lon="26.917770328000188">
        <ele>113.09</ele>
        <time>2014-07-21T10:36:06Z</time>
      </trkpt>
      <trkpt lat="68.886429648846388" lon="26.918021366000175">
        <ele>113.09</ele>
        <time>2014-07-21T10:36:16Z</time>
      </trkpt>
      <trkpt lat="68.886549845337868" lon="26.918240636587143">
        <ele>113.56999999999999</ele>
        <time>2014-07-21T10:36:30Z</time>
      </trkpt>
      <trkpt lat="68.886656630784273" lon="26.918485723435879">
        <ele>114.53</ele>
        <time>2014-07-21T10:36:44Z</time>
      </trkpt>
      <trkpt lat="68.886757884174585" lon="26.918726367875934">
        <ele>114.53</ele>
        <time>2014-07-21T10:36:58Z</time>
      </trkpt>
      <trkpt lat="68.886806918308139" lon="26.918882522732019">
        <ele>114.05</ele>
        <time>2014-07-21T10:37:05Z</time>
      </trkpt>
      <trkpt lat="68.886920074000955" lon="26.919236574321985">
        <ele>114.53</ele>
        <time>2014-07-21T10:37:22Z</time>
      </trkpt>
      <trkpt lat="68.886948907747865" lon="26.919250153005123">
        <ele>115.01000000000001</ele>
        <time>2014-07-21T10:37:25Z</time>
      </trkpt>
      <trkpt lat="68.887045131996274" lon="26.919337743893266">
        <ele>115.5</ele>
        <time>2014-07-21T10:37:40Z</time>
      </trkpt>
      <trkpt lat="68.887156024575233" lon="26.919551733881235">
        <ele>115.98</ele>
        <time>2014-07-21T10:37:55Z</time>
      </trkpt>
      <trkpt lat="68.887278232723475" lon="26.919804280623794">
        <ele>116.94</ele>
        <time>2014-07-21T10:38:09Z</time>
      </trkpt>
      <trkpt lat="68.887448301538825" lon="26.920060850679874">
        <ele>116.94</ele>
        <time>2014-07-21T10:38:27Z</time>
      </trkpt>
      <trkpt lat="68.887456767261028" lon="26.920082475990057">
        <ele>117.42</ele>
        <time>2014-07-21T10:38:28Z</time>
      </trkpt>
      <trkpt lat="68.887578975409269" lon="26.920228907838464">
        <ele>117.42</ele>
        <time>2014-07-21T10:38:43Z</time>
      </trkpt>
      <trkpt lat="68.887661872431636" lon="26.920387912541628">
        <ele>118.38</ele>
        <time>2014-07-21T10:38:52Z</time>
      </trkpt>
      <trkpt lat="68.887689365074039" lon="26.920535266399384">
        <ele>117.90000000000001</ele>
        <time>2014-07-21T10:38:57Z</time>
      </trkpt>
      <trkpt lat="68.887762036174536" lon="26.92066652700305">
        <ele>117.90000000000001</ele>
        <time>2014-07-21T10:39:06Z</time>
      </trkpt>
      <trkpt lat="68.887857673689723" lon="26.920710867270827">
        <ele>118.38</ele>
        <time>2014-07-21T10:39:18Z</time>
      </trkpt>
      <trkpt lat="68.888009050861001" lon="26.920981770381331">
        <ele>118.86</ele>
        <time>2014-07-21T10:39:34Z</time>
      </trkpt>
      <trkpt lat="68.888128073886037" lon="26.921246135607362">
        <ele>118.86</ele>
        <time>2014-07-21T10:39:47Z</time>
      </trkpt>
      <trkpt lat="68.888212731108069" lon="26.921536987647414">
        <ele>120.3</ele>
        <time>2014-07-21T10:40:00Z</time>
      </trkpt>
      <trkpt lat="68.888295041397214" lon="26.921775033697486">
        <ele>119.81999999999999</ele>
        <time>2014-07-21T10:40:14Z</time>
      </trkpt>
      <trkpt lat="68.888329910114408" lon="26.921814261004329">
        <ele>119.34</ele>
        <time>2014-07-21T10:40:18Z</time>
      </trkpt>
      <trkpt lat="68.888352625072002" lon="26.921917609870434">
        <ele>119.81999999999999</ele>
        <time>2014-07-21T10:40:22Z</time>
      </trkpt>
      <trkpt lat="68.888488411903381" lon="26.922164289280772">
        <ele>119.81999999999999</ele>
        <time>2014-07-21T10:40:39Z</time>
      </trkpt>
      <trkpt lat="68.888616403564811" lon="26.922300579026341">
        <ele>120.3</ele>
        <time>2014-07-21T10:40:52Z</time>
      </trkpt>
      <trkpt lat="68.888625958934426" lon="26.922345506027341">
        <ele>120.3</ele>
        <time>2014-07-21T10:40:54Z</time>
      </trkpt>
      <trkpt lat="68.88862956315279" lon="26.922405771911144">
        <ele>120.3</ele>
        <time>2014-07-21T10:40:56Z</time>
      </trkpt>
      <trkpt lat="68.888736600056291" lon="26.922639375552535">
        <ele>120.3</ele>
        <time>2014-07-21T10:41:09Z</time>
      </trkpt>
      <trkpt lat="68.888848749920726" lon="26.922830315306783">
        <ele>120.3</ele>
        <time>2014-07-21T10:41:21Z</time>
      </trkpt>
      <trkpt lat="68.889004401862621" lon="26.923032905906439">
        <ele>120.78</ele>
        <time>2014-07-21T10:41:38Z</time>
      </trkpt>
      <trkpt lat="68.889148905873299" lon="26.923206746578217">
        <ele>120.78</ele>
        <time>2014-07-21T10:41:53Z</time>
      </trkpt>
      <trkpt lat="68.889180673286319" lon="26.92320205271244">
        <ele>121.26000000000001</ele>
        <time>2014-07-21T10:41:56Z</time>
      </trkpt>
      <trkpt lat="68.889331128448248" lon="26.923425681889057">
        <ele>121.73999999999999</ele>
        <time>2014-07-21T10:42:13Z</time>
      </trkpt>
      <trkpt lat="68.889451744034886" lon="26.923542693257332">
        <ele>121.26000000000001</ele>
        <time>2014-07-21T10:42:27Z</time>
      </trkpt>
      <trkpt lat="68.889575209468603" lon="26.923775542527437">
        <ele>121.26000000000001</ele>
        <time>2014-07-21T10:42:41Z</time>
      </trkpt>
      <trkpt lat="68.88966791331768" lon="26.923948796465993">
        <ele>121.73999999999999</ele>
        <time>2014-07-21T10:42:55Z</time>
      </trkpt>
      <trkpt lat="68.889763550832868" lon="26.923950472846627">
        <ele>122.22</ele>
        <time>2014-07-21T10:43:11Z</time>
      </trkpt>
      <trkpt lat="68.889835132285953" lon="26.923963213339448">
        <ele>123.19</ele>
        <time>2014-07-21T10:43:27Z</time>
      </trkpt>
      <trkpt lat="68.889942253008485" lon="26.924077793955803">
        <ele>123.67</ele>
        <time>2014-07-21T10:43:40Z</time>
      </trkpt>
      <trkpt lat="68.890034789219499" lon="26.924140993505716">
        <ele>124.15000000000001</ele>
        <time>2014-07-21T10:43:55Z</time>
      </trkpt>
      <trkpt lat="68.890133025124669" lon="26.924273930490017">
        <ele>124.63</ele>
        <time>2014-07-21T10:44:08Z</time>
      </trkpt>
      <trkpt lat="68.890268141403794" lon="26.924440730363131">
        <ele>125.11</ele>
        <time>2014-07-21T10:44:22Z</time>
      </trkpt>
      <trkpt lat="68.890420775860548" lon="26.924812803044915">
        <ele>124.63</ele>
        <time>2014-07-21T10:44:42Z</time>
      </trkpt>
      <trkpt lat="68.890590844675899" lon="26.925102649256587">
        <ele>125.11</ele>
        <time>2014-07-21T10:44:59Z</time>
      </trkpt>
      <trkpt lat="68.890691846609116" lon="26.925493665039539">
        <ele>125.11</ele>
        <time>2014-07-21T10:45:17Z</time>
      </trkpt>
      <trkpt lat="68.890735767781734" lon="26.925702206790447">
        <ele>125.11</ele>
        <time>2014-07-21T10:45:32Z</time>
      </trkpt>
      <trkpt lat="68.890798380598426" lon="26.925798347219825">
        <ele>125.11</ele>
        <time>2014-07-21T10:45:44Z</time>
      </trkpt>
      <trkpt lat="68.890848085284233" lon="26.925975792109966">
        <ele>125.11</ele>
        <time>2014-07-21T10:45:52Z</time>
      </trkpt>
      <trkpt lat="68.890921846032143" lon="26.926275528967381">
        <ele>125.11</ele>
        <time>2014-07-21T10:46:06Z</time>
      </trkpt>
      <trkpt lat="68.890940621495247" lon="26.926587419584394">
        <ele>125.59</ele>
        <time>2014-07-21T10:46:19Z</time>
      </trkpt>
      <trkpt lat="68.890968365594745" lon="26.92689310759306">
        <ele>126.55</ele>
        <time>2014-07-21T10:46:35Z</time>
      </trkpt>
      <trkpt lat="68.890962246805429" lon="26.927222264930606">
        <ele>126.55</ele>
        <time>2014-07-21T10:46:50Z</time>
      </trkpt>
      <trkpt lat="68.890995187684894" lon="26.927415886893868">
        <ele>127.51000000000001</ele>
        <time>2014-07-21T10:47:07Z</time>
      </trkpt>
      <trkpt lat="68.891114881262183" lon="26.927571287378669">
        <ele>128.47</ele>
        <time>2014-07-21T10:47:23Z</time>
      </trkpt>
      <trkpt lat="68.891247315332294" lon="26.927745882421732">
        <ele>130.40000000000001</ele>
        <time>2014-07-21T10:47:42Z</time>
      </trkpt>
      <trkpt lat="68.891341276466846" lon="26.927978480234742">
        <ele>129.91999999999999</ele>
        <time>2014-07-21T10:47:56Z</time>
      </trkpt>
      <trkpt lat="68.891425430774689" lon="26.928270673379302">
        <ele>130.40000000000001</ele>
        <time>2014-07-21T10:48:10Z</time>
      </trkpt>
      <trkpt lat="68.891548393294215" lon="26.92848751321435">
        <ele>129.91999999999999</ele>
        <time>2014-07-21T10:48:26Z</time>
      </trkpt>
      <trkpt lat="68.891668925061822" lon="26.928621623665094">
        <ele>130.40000000000001</ele>
        <time>2014-07-21T10:48:40Z</time>
      </trkpt>
      <trkpt lat="68.891785098239779" lon="26.928704520687461">
        <ele>130.40000000000001</ele>
        <time>2014-07-21T10:48:56Z</time>
      </trkpt>
      <trkpt lat="68.891848465427756" lon="26.928799236193299">
        <ele>132.31999999999999</ele>
        <time>2014-07-21T10:49:11Z</time>
      </trkpt>
      <trkpt lat="68.891935050487518" lon="26.928870733827353">
        <ele>131.36000000000001</ele>
        <time>2014-07-21T10:49:31Z</time>
      </trkpt>
      <trkpt lat="68.891981653869152" lon="26.928891269490123">
        <ele>130.88</ele>
        <time>2014-07-21T10:49:49Z</time>
      </trkpt>
      <trkpt lat="68.892057426273823" lon="26.929045161232352">
        <ele>130.40000000000001</ele>
        <time>2014-07-21T10:50:05Z</time>
      </trkpt>
      <trkpt lat="68.892121380195022" lon="26.929255127906799">
        <ele>130.40000000000001</ele>
        <time>2014-07-21T10:50:19Z</time>
      </trkpt>
      <trkpt lat="68.892136802896857" lon="26.929409187287092">
        <ele>130.40000000000001</ele>
        <time>2014-07-21T10:50:25Z</time>
      </trkpt>
      <trkpt lat="68.892184412106872" lon="26.929535586386919">
        <ele>129.91999999999999</ele>
        <time>2014-07-21T10:50:39Z</time>
      </trkpt>
      <trkpt lat="68.892218442633748" lon="26.929579507559538">
        <ele>129.91999999999999</ele>
        <time>2014-07-21T10:50:54Z</time>
      </trkpt>
      <trkpt lat="68.892233446240425" lon="26.929599791765213">
        <ele>130.40000000000001</ele>
        <time>2014-07-21T10:51:12Z</time>
      </trkpt>
      <trkpt lat="68.892229171469808" lon="26.929675731807947">
        <ele>140.49000000000001</ele>
        <time>2014-07-21T11:18:37Z</time>
      </trkpt>
      <trkpt lat="68.89222246594727" lon="26.929687466472387">
        <ele>140.49000000000001</ele>
        <time>2014-07-21T11:18:38Z</time>
      </trkpt>
      <trkpt lat="68.892220035195351" lon="26.929692830890417">
        <ele>140.49000000000001</ele>
        <time>2014-07-21T11:18:39Z</time>
      </trkpt>
      <trkpt lat="68.892232524231076" lon="26.929714120924473">
        <ele>140.49000000000001</ele>
        <time>2014-07-21T11:18:56Z</time>
      </trkpt>
      <trkpt lat="68.892301674932241" lon="26.929998435080051">
        <ele>140.49000000000001</ele>
        <time>2014-07-21T11:19:13Z</time>
      </trkpt>
      <trkpt lat="68.892344841733575" lon="26.930086612701416">
        <ele>140.00999999999999</ele>
        <time>2014-07-21T11:19:24Z</time>
      </trkpt>
      <trkpt lat="68.892434947192669" lon="26.930425325408578">
        <ele>139.53</ele>
        <time>2014-07-21T11:19:38Z</time>
      </trkpt>
      <trkpt lat="68.892446346580982" lon="26.930564967915416">
        <ele>139.53</ele>
        <time>2014-07-21T11:19:51Z</time>
      </trkpt>
      <trkpt lat="68.892526980489492" lon="26.930814413353801">
        <ele>139.53</ele>
        <time>2014-07-21T11:20:06Z</time>
      </trkpt>
      <trkpt lat="68.892623791471124" lon="26.931106941774487">
        <ele>140.49000000000001</ele>
        <time>2014-07-21T11:20:24Z</time>
      </trkpt>
      <trkpt lat="68.892722027376294" lon="26.931416736915708">
        <ele>140.97</ele>
        <time>2014-07-21T11:20:40Z</time>
      </trkpt>
      <trkpt lat="68.89282445423305" lon="26.931737177073956">
        <ele>140.97</ele>
        <time>2014-07-21T11:20:55Z</time>
      </trkpt>
      <trkpt lat="68.892981112003326" lon="26.931905066594481">
        <ele>140.97</ele>
        <time>2014-07-21T11:21:13Z</time>
      </trkpt>
      <trkpt lat="68.893123604357243" lon="26.932162726297975">
        <ele>140.97</ele>
        <time>2014-07-21T11:21:30Z</time>
      </trkpt>
      <trkpt lat="68.893288560211658" lon="26.932442262768745">
        <ele>140.49000000000001</ele>
        <time>2014-07-21T11:21:47Z</time>
      </trkpt>
      <trkpt lat="68.893385622650385" lon="26.932649379596114">
        <ele>140.49000000000001</ele>
        <time>2014-07-21T11:22:00Z</time>
      </trkpt>
      <trkpt lat="68.893480589613318" lon="26.933031259104609">
        <ele>141.44999999999999</ele>
        <time>2014-07-21T11:22:15Z</time>
      </trkpt>
      <trkpt lat="68.89349433593452" lon="26.933094291016459">
        <ele>141.44999999999999</ele>
        <time>2014-07-21T11:22:17Z</time>
      </trkpt>
      <trkpt lat="68.893587291240692" lon="26.933508273214102">
        <ele>141.44999999999999</ele>
        <time>2014-07-21T11:22:34Z</time>
      </trkpt>
      <trkpt lat="68.893630625680089" lon="26.93388001061976">
        <ele>140.49000000000001</ele>
        <time>2014-07-21T11:22:49Z</time>
      </trkpt>
      <trkpt lat="68.893718719482422" lon="26.934240851551294">
        <ele>140.49000000000001</ele>
        <time>2014-07-21T11:23:04Z</time>
      </trkpt>
      <trkpt lat="68.893781751394272" lon="26.934684589505196">
        <ele>140.49000000000001</ele>
        <time>2014-07-21T11:23:18Z</time>
      </trkpt>
      <trkpt lat="68.893774626776576" lon="26.934798918664455">
        <ele>140.49000000000001</ele>
        <time>2014-07-21T11:23:22Z</time>
      </trkpt>
      <trkpt lat="68.893821313977242" lon="26.935131764039397">
        <ele>140.97</ele>
        <time>2014-07-21T11:23:36Z</time>
      </trkpt>
      <trkpt lat="68.893927931785583" lon="26.935250032693148">
        <ele>141.44999999999999</ele>
        <time>2014-07-21T11:23:53Z</time>
      </trkpt>
      <trkpt lat="68.894005129113793" lon="26.935519175603986">
        <ele>142.41</ele>
        <time>2014-07-21T11:24:07Z</time>
      </trkpt>
      <trkpt lat="68.894077464938164" lon="26.935611376538873">
        <ele>143.37</ele>
        <time>2014-07-21T11:24:22Z</time>
      </trkpt>
      <trkpt lat="68.894162960350513" lon="26.935844896361232">
        <ele>143.37</ele>
        <time>2014-07-21T11:24:38Z</time>
      </trkpt>
      <trkpt lat="68.894249377772212" lon="26.935965763404965">
        <ele>143.84999999999999</ele>
        <time>2014-07-21T11:24:55Z</time>
      </trkpt>
      <trkpt lat="68.89421752654016" lon="26.936005745083094">
        <ele>144.34</ele>
        <time>2014-07-21T11:25:12Z</time>
      </trkpt>
      <trkpt lat="68.894303692504764" lon="26.936097862198949">
        <ele>144.34</ele>
        <time>2014-07-21T11:25:32Z</time>
      </trkpt>
      <trkpt lat="68.894342500716448" lon="26.936131473630667">
        <ele>144.81999999999999</ele>
        <time>2014-07-21T11:25:50Z</time>
      </trkpt>
      <trkpt lat="68.894455404952168" lon="26.93633196875453">
        <ele>143.84999999999999</ele>
        <time>2014-07-21T11:26:04Z</time>
      </trkpt>
      <trkpt lat="68.894504019990563" lon="26.936745112761855">
        <ele>143.37</ele>
        <time>2014-07-21T11:26:18Z</time>
      </trkpt>
      <trkpt lat="68.894565459340811" lon="26.936999503523111">
        <ele>142.88999999999999</ele>
        <time>2014-07-21T11:26:31Z</time>
      </trkpt>
      <trkpt lat="68.894598567858338" lon="26.937189437448978">
        <ele>143.37</ele>
        <time>2014-07-21T11:26:39Z</time>
      </trkpt>
      <trkpt lat="68.894704012200236" lon="26.937484564259648">
        <ele>142.88999999999999</ele>
        <time>2014-07-21T11:26:55Z</time>
      </trkpt>
      <trkpt lat="68.894787076860666" lon="26.937758065760136">
        <ele>143.37</ele>
        <time>2014-07-21T11:27:11Z</time>
      </trkpt>
      <trkpt lat="68.894883971661329" lon="26.938072722405195">
        <ele>143.37</ele>
        <time>2014-07-21T11:27:26Z</time>
      </trkpt>
      <trkpt lat="68.894943399354815" lon="26.938392743468285">
        <ele>141.93000000000001</ele>
        <time>2014-07-21T11:27:39Z</time>
      </trkpt>
      <trkpt lat="68.895017243921757" lon="26.938724247738719">
        <ele>141.44999999999999</ele>
        <time>2014-07-21T11:27:53Z</time>
      </trkpt>
      <trkpt lat="68.895128890872002" lon="26.938877636566758">
        <ele>141.93000000000001</ele>
        <time>2014-07-21T11:28:08Z</time>
      </trkpt>
      <trkpt lat="68.89518647454679" lon="26.939032869413495">
        <ele>141.44999999999999</ele>
        <time>2014-07-21T11:28:20Z</time>
      </trkpt>
      <trkpt lat="68.895308934152126" lon="26.939236046746373">
        <ele>141.93000000000001</ele>
        <time>2014-07-21T11:28:36Z</time>
      </trkpt>
      <trkpt lat="68.895425442606211" lon="26.939425310119987">
        <ele>141.93000000000001</ele>
        <time>2014-07-21T11:28:53Z</time>
      </trkpt>
      <trkpt lat="68.89550163410604" lon="26.939552379772067">
        <ele>142.41</ele>
        <time>2014-07-21T11:29:06Z</time>
      </trkpt>
      <trkpt lat="68.895618226379156" lon="26.939782965928316">
        <ele>142.41</ele>
        <time>2014-07-21T11:29:20Z</time>
      </trkpt>
      <trkpt lat="68.895758958533406" lon="26.940069878473878">
        <ele>141.93000000000001</ele>
        <time>2014-07-21T11:29:36Z</time>
      </trkpt>
      <trkpt lat="68.895854763686657" lon="26.940300213173032">
        <ele>141.93000000000001</ele>
        <time>2014-07-21T11:29:50Z</time>
      </trkpt>
      <trkpt lat="68.895976468920708" lon="26.940710758790374">
        <ele>140.97</ele>
        <time>2014-07-21T11:30:07Z</time>
      </trkpt>
      <trkpt lat="68.896069088950753" lon="26.941092470660806">
        <ele>140.97</ele>
        <time>2014-07-21T11:30:24Z</time>
      </trkpt>
      <trkpt lat="68.896148297935724" lon="26.941398829221725">
        <ele>141.44999999999999</ele>
        <time>2014-07-21T11:30:38Z</time>
      </trkpt>
      <trkpt lat="68.896251646801829" lon="26.9415866676718">
        <ele>142.41</ele>
        <time>2014-07-21T11:30:51Z</time>
      </trkpt>
      <trkpt lat="68.896360946819186" lon="26.941872742027044">
        <ele>142.41</ele>
        <time>2014-07-21T11:31:07Z</time>
      </trkpt>
      <trkpt lat="68.89646127820015" lon="26.942113973200321">
        <ele>142.88999999999999</ele>
        <time>2014-07-21T11:31:22Z</time>
      </trkpt>
      <trkpt lat="68.896592371165752" lon="26.942395605146885">
        <ele>142.88999999999999</ele>
        <time>2014-07-21T11:31:39Z</time>
      </trkpt>
      <trkpt lat="68.896693624556065" lon="26.942730965092778">
        <ele>142.88999999999999</ele>
        <time>2014-07-21T11:31:55Z</time>
      </trkpt>
      <trkpt lat="68.896758081391454" lon="26.943009495735168">
        <ele>142.88999999999999</ele>
        <time>2014-07-21T11:32:09Z</time>
      </trkpt>
      <trkpt lat="68.896809881553054" lon="26.943232621997595">
        <ele>143.84999999999999</ele>
        <time>2014-07-21T11:32:25Z</time>
      </trkpt>
      <trkpt lat="68.896859670057893" lon="26.94330713711679">
        <ele>144.81999999999999</ele>
        <time>2014-07-21T11:32:40Z</time>
      </trkpt>
      <trkpt lat="68.896961929276586" lon="26.943371593952179">
        <ele>144.81999999999999</ele>
        <time>2014-07-21T11:32:55Z</time>
      </trkpt>
      <trkpt lat="68.897149600088596" lon="26.943308478221297">
        <ele>145.30000000000001</ele>
        <time>2014-07-21T11:33:13Z</time>
      </trkpt>
      <trkpt lat="68.897277843207121" lon="26.943329349160194">
        <ele>144.81999999999999</ele>
        <time>2014-07-21T11:33:28Z</time>
      </trkpt>
      <trkpt lat="68.897389657795429" lon="26.943241590633988">
        <ele>145.30000000000001</ele>
        <time>2014-07-21T11:33:45Z</time>
      </trkpt>
      <trkpt lat="68.897504322230816" lon="26.943314094096422">
        <ele>144.34</ele>
        <time>2014-07-21T11:33:59Z</time>
      </trkpt>
      <trkpt lat="68.897676737979054" lon="26.943435883149505">
        <ele>144.81999999999999</ele>
        <time>2014-07-21T11:34:18Z</time>
      </trkpt>
      <trkpt lat="68.897787127643824" lon="26.943370420485735">
        <ele>145.30000000000001</ele>
        <time>2014-07-21T11:34:32Z</time>
      </trkpt>
      <trkpt lat="68.897797102108598" lon="26.943365726619959">
        <ele>145.78</ele>
        <time>2014-07-21T11:34:33Z</time>
      </trkpt>
      <trkpt lat="68.897866336628795" lon="26.943667642772198">
        <ele>145.78</ele>
        <time>2014-07-21T11:34:47Z</time>
      </trkpt>
      <trkpt lat="68.897987036034465" lon="26.943894624710083">
        <ele>146.74000000000001</ele>
        <time>2014-07-21T11:35:05Z</time>
      </trkpt>
      <trkpt lat="68.898092312738299" lon="26.943831760436296">
        <ele>147.22</ele>
        <time>2014-07-21T11:35:18Z</time>
      </trkpt>
      <trkpt lat="68.898244611918926" lon="26.94378649815917">
        <ele>147.69999999999999</ele>
        <time>2014-07-21T11:35:33Z</time>
      </trkpt>
      <trkpt lat="68.898409986868501" lon="26.944021359086037">
        <ele>148.18000000000001</ele>
        <time>2014-07-21T11:35:51Z</time>
      </trkpt>
      <trkpt lat="68.898548204451799" lon="26.944304164499044">
        <ele>148.66</ele>
        <time>2014-07-21T11:36:07Z</time>
      </trkpt>
      <trkpt lat="68.898676531389356" lon="26.944577330723405">
        <ele>148.18000000000001</ele>
        <time>2014-07-21T11:36:21Z</time>
      </trkpt>
      <trkpt lat="68.898801505565643" lon="26.944722589105368">
        <ele>147.69999999999999</ele>
        <time>2014-07-21T11:36:37Z</time>
      </trkpt>
      <trkpt lat="68.898854311555624" lon="26.944925682619214">
        <ele>146.74000000000001</ele>
        <time>2014-07-21T11:36:46Z</time>
      </trkpt>
      <trkpt lat="68.898944668471813" lon="26.945227179676294">
        <ele>145.78</ele>
        <time>2014-07-21T11:36:56Z</time>
      </trkpt>
      <trkpt lat="68.898976100608706" lon="26.945412587374449">
        <ele>145.30000000000001</ele>
        <time>2014-07-21T11:37:03Z</time>
      </trkpt>
      <trkpt lat="68.899057740345597" lon="26.945612663403153">
        <ele>145.30000000000001</ele>
        <time>2014-07-21T11:37:12Z</time>
      </trkpt>
      <trkpt lat="68.899150025099516" lon="26.945978198200464">
        <ele>145.30000000000001</ele>
        <time>2014-07-21T11:37:26Z</time>
      </trkpt>
      <trkpt lat="68.899201741442084" lon="26.946389162912965">
        <ele>145.30000000000001</ele>
        <time>2014-07-21T11:37:42Z</time>
      </trkpt>
      <trkpt lat="68.89926603063941" lon="26.946787051856518">
        <ele>145.78</ele>
        <time>2014-07-21T11:37:57Z</time>
      </trkpt>
      <trkpt lat="68.899316908791661" lon="26.947035659104586">
        <ele>146.25999999999999</ele>
        <time>2014-07-21T11:38:07Z</time>
      </trkpt>
      <trkpt lat="68.899404415860772" lon="26.947448635473847">
        <ele>145.30000000000001</ele>
        <time>2014-07-21T11:38:25Z</time>
      </trkpt>
      <trkpt lat="68.899401985108852" lon="26.947864964604378">
        <ele>144.81999999999999</ele>
        <time>2014-07-21T11:38:41Z</time>
      </trkpt>
      <trkpt lat="68.899421095848083" lon="26.948135448619723">
        <ele>145.30000000000001</ele>
        <time>2014-07-21T11:38:55Z</time>
      </trkpt>
      <trkpt lat="68.899416737258434" lon="26.948598967865109">
        <ele>145.30000000000001</ele>
        <time>2014-07-21T11:39:10Z</time>
      </trkpt>
      <trkpt lat="68.899393519386649" lon="26.949094422161579">
        <ele>144.81999999999999</ele>
        <time>2014-07-21T11:39:25Z</time>
      </trkpt>
      <trkpt lat="68.899357477203012" lon="26.949503291398287">
        <ele>143.84999999999999</ele>
        <time>2014-07-21T11:39:40Z</time>
      </trkpt>
      <trkpt lat="68.899386562407017" lon="26.949862455949187">
        <ele>143.84999999999999</ele>
        <time>2014-07-21T11:39:55Z</time>
      </trkpt>
      <trkpt lat="68.899438614025712" lon="26.950201587751508">
        <ele>144.34</ele>
        <time>2014-07-21T11:40:10Z</time>
      </trkpt>
      <trkpt lat="68.899453952908516" lon="26.950513562187552">
        <ele>144.34</ele>
        <time>2014-07-21T11:40:23Z</time>
      </trkpt>
      <trkpt lat="68.899454120546579" lon="26.950871301814914">
        <ele>143.84999999999999</ele>
        <time>2014-07-21T11:40:37Z</time>
      </trkpt>
      <trkpt lat="68.899497119709849" lon="26.951173553243279">
        <ele>145.78</ele>
        <time>2014-07-21T11:40:53Z</time>
      </trkpt>
      <trkpt lat="68.899560486897826" lon="26.951430710032582">
        <ele>146.25999999999999</ele>
        <time>2014-07-21T11:41:08Z</time>
      </trkpt>
      <trkpt lat="68.89963248744607" lon="26.951779564842582">
        <ele>146.74000000000001</ele>
        <time>2014-07-21T11:41:24Z</time>
      </trkpt>
      <trkpt lat="68.899679845198989" lon="26.952049126848578">
        <ele>146.74000000000001</ele>
        <time>2014-07-21T11:41:39Z</time>
      </trkpt>
      <trkpt lat="68.899690490216017" lon="26.95232329890132">
        <ele>146.25999999999999</ele>
        <time>2014-07-21T11:41:52Z</time>
      </trkpt>
      <trkpt lat="68.899708427488804" lon="26.95249822922051">
        <ele>146.74000000000001</ele>
        <time>2014-07-21T11:42:01Z</time>
      </trkpt>
      <trkpt lat="68.899736339226365" lon="26.952715991064906">
        <ele>146.74000000000001</ele>
        <time>2014-07-21T11:42:11Z</time>
      </trkpt>
      <trkpt lat="68.899849411100149" lon="26.953053865581751">
        <ele>146.25999999999999</ele>
        <time>2014-07-21T11:42:28Z</time>
      </trkpt>
      <trkpt lat="68.899906408041716" lon="26.953353770077229">
        <ele>145.78</ele>
        <time>2014-07-21T11:42:44Z</time>
      </trkpt>
      <trkpt lat="68.899978324770927" lon="26.953605813905597">
        <ele>146.25999999999999</ele>
        <time>2014-07-21T11:42:59Z</time>
      </trkpt>
      <trkpt lat="68.900076979771256" lon="26.953852325677872">
        <ele>146.25999999999999</ele>
        <time>2014-07-21T11:43:16Z</time>
      </trkpt>
      <trkpt lat="68.900185944512486" lon="26.953933546319604">
        <ele>147.69999999999999</ele>
        <time>2014-07-21T11:43:32Z</time>
      </trkpt>
      <trkpt lat="68.900295160710812" lon="26.954114679247141">
        <ele>146.74000000000001</ele>
        <time>2014-07-21T11:43:49Z</time>
      </trkpt>
      <trkpt lat="68.900369927287102" lon="26.954199504107237">
        <ele>146.25999999999999</ele>
        <time>2014-07-21T11:44:04Z</time>
      </trkpt>
      <trkpt lat="68.90046120621264" lon="26.954426737502217">
        <ele>146.25999999999999</ele>
        <time>2014-07-21T11:44:22Z</time>
      </trkpt>
      <trkpt lat="68.900507809594274" lon="26.954792104661465">
        <ele>145.78</ele>
        <time>2014-07-21T11:44:38Z</time>
      </trkpt>
      <trkpt lat="68.90059414319694" lon="26.955164596438408">
        <ele>146.25999999999999</ele>
        <time>2014-07-21T11:44:54Z</time>
      </trkpt>
      <trkpt lat="68.900685757398605" lon="26.955480510368943">
        <ele>146.25999999999999</ele>
        <time>2014-07-21T11:45:09Z</time>
      </trkpt>
      <trkpt lat="68.900736635550857" lon="26.955631719902158">
        <ele>146.25999999999999</ele>
        <time>2014-07-21T11:45:16Z</time>
      </trkpt>
      <trkpt lat="68.90083353035152" lon="26.955866077914834">
        <ele>146.74000000000001</ele>
        <time>2014-07-21T11:45:30Z</time>
      </trkpt>
      <trkpt lat="68.900969820097089" lon="26.956234546378255">
        <ele>147.22</ele>
        <time>2014-07-21T11:45:48Z</time>
      </trkpt>
      <trkpt lat="68.901047771796584" lon="26.956475023180246">
        <ele>148.18000000000001</ele>
        <time>2014-07-21T11:46:03Z</time>
      </trkpt>
      <trkpt lat="68.901098566129804" lon="26.956877522170544">
        <ele>148.18000000000001</ele>
        <time>2014-07-21T11:46:18Z</time>
      </trkpt>
      <trkpt lat="68.901137709617615" lon="26.957243978977203">
        <ele>147.69999999999999</ele>
        <time>2014-07-21T11:46:32Z</time>
      </trkpt>
      <trkpt lat="68.901158245280385" lon="26.957654440775514">
        <ele>146.74000000000001</ele>
        <time>2014-07-21T11:46:46Z</time>
      </trkpt>
      <trkpt lat="68.901214152574539" lon="26.957942945882678">
        <ele>146.25999999999999</ele>
        <time>2014-07-21T11:47:00Z</time>
      </trkpt>
      <trkpt lat="68.901220187544823" lon="26.958294315263629">
        <ele>146.74000000000001</ele>
        <time>2014-07-21T11:47:15Z</time>
      </trkpt>
      <trkpt lat="68.901241980493069" lon="26.958688599988818">
        <ele>147.22</ele>
        <time>2014-07-21T11:47:29Z</time>
      </trkpt>
      <trkpt lat="68.901271568611264" lon="26.95907324552536">
        <ele>147.22</ele>
        <time>2014-07-21T11:47:45Z</time>
      </trkpt>
      <trkpt lat="68.901259666308761" lon="26.959242643788457">
        <ele>147.69999999999999</ele>
        <time>2014-07-21T11:47:51Z</time>
      </trkpt>
      <trkpt lat="68.901235442608595" lon="26.959661403670907">
        <ele>148.18000000000001</ele>
        <time>2014-07-21T11:48:06Z</time>
      </trkpt>
      <trkpt lat="68.901268886402249" lon="26.960147218778729">
        <ele>149.13999999999999</ele>
        <time>2014-07-21T11:48:24Z</time>
      </trkpt>
      <trkpt lat="68.901268299669027" lon="26.960325837135315">
        <ele>148.66</ele>
        <time>2014-07-21T11:48:30Z</time>
      </trkpt>
      <trkpt lat="68.901281962171197" lon="26.960784830152988">
        <ele>148.66</ele>
        <time>2014-07-21T11:48:47Z</time>
      </trkpt>
      <trkpt lat="68.901271652430296" lon="26.96112647652626">
        <ele>149.13999999999999</ele>
        <time>2014-07-21T11:49:02Z</time>
      </trkpt>
      <trkpt lat="68.901251871138811" lon="26.961592175066471">
        <ele>149.62</ele>
        <time>2014-07-21T11:49:21Z</time>
      </trkpt>
      <trkpt lat="68.901211218908429" lon="26.962032644078135">
        <ele>149.13999999999999</ele>
        <time>2014-07-21T11:49:38Z</time>
      </trkpt>
      <trkpt lat="68.901161765679717" lon="26.962340511381626">
        <ele>149.62</ele>
        <time>2014-07-21T11:49:53Z</time>
      </trkpt>
      <trkpt lat="68.901123963296413" lon="26.962627926841378">
        <ele>150.58000000000001</ele>
        <time>2014-07-21T11:50:06Z</time>
      </trkpt>
      <trkpt lat="68.90107492916286" lon="26.962927496060729">
        <ele>151.53999999999999</ele>
        <time>2014-07-21T11:50:21Z</time>
      </trkpt>
      <trkpt lat="68.901019608601928" lon="26.96323829703033">
        <ele>152.03</ele>
        <time>2014-07-21T11:50:36Z</time>
      </trkpt>
      <trkpt lat="68.900908883661032" lon="26.963422363623977">
        <ele>152.99000000000001</ele>
        <time>2014-07-21T11:50:51Z</time>
      </trkpt>
      <trkpt lat="68.900840319693089" lon="26.963438540697098">
        <ele>153.47</ele>
        <time>2014-07-21T11:50:58Z</time>
      </trkpt>
      <trkpt lat="68.90075440518558" lon="26.963653368875384">
        <ele>153.94999999999999</ele>
        <time>2014-07-21T11:51:13Z</time>
      </trkpt>
      <trkpt lat="68.900751052424312" lon="26.963737439364195">
        <ele>153.47</ele>
        <time>2014-07-21T11:51:16Z</time>
      </trkpt>
      <trkpt lat="68.900760356336832" lon="26.964188888669014">
        <ele>153.94999999999999</ele>
        <time>2014-07-21T11:51:34Z</time>
      </trkpt>
      <trkpt lat="68.900756500661373" lon="26.964304894208908">
        <ele>154.43000000000001</ele>
        <time>2014-07-21T11:51:38Z</time>
      </trkpt>
      <trkpt lat="68.900761278346181" lon="26.964680822566152">
        <ele>153.47</ele>
        <time>2014-07-21T11:51:54Z</time>
      </trkpt>
      <trkpt lat="68.900776533409953" lon="26.964799426496029">
        <ele>154.91</ele>
        <time>2014-07-21T12:15:52Z</time>
      </trkpt>
      <trkpt lat="68.900787262246013" lon="26.96502816863358">
        <ele>154.43000000000001</ele>
        <time>2014-07-21T12:16:09Z</time>
      </trkpt>
      <trkpt lat="68.900812659412622" lon="26.965222293511033">
        <ele>153.94999999999999</ele>
        <time>2014-07-21T12:16:26Z</time>
      </trkpt>
      <trkpt lat="68.900826573371887" lon="26.965499399229884">
        <ele>153.47</ele>
        <time>2014-07-21T12:16:34Z</time>
      </trkpt>
      <trkpt lat="68.900850880891085" lon="26.965932324528694">
        <ele>153.47</ele>
        <time>2014-07-21T12:16:51Z</time>
      </trkpt>
      <trkpt lat="68.900903686881065" lon="26.96630347520113">
        <ele>152.99000000000001</ele>
        <time>2014-07-21T12:17:04Z</time>
      </trkpt>
      <trkpt lat="68.900917349383235" lon="26.96637287735939">
        <ele>152.99000000000001</ele>
        <time>2014-07-21T12:17:07Z</time>
      </trkpt>
      <trkpt lat="68.900976106524467" lon="26.966745788231492">
        <ele>152.03</ele>
        <time>2014-07-21T12:17:23Z</time>
      </trkpt>
      <trkpt lat="68.900999827310443" lon="26.967139234766364">
        <ele>151.53999999999999</ele>
        <time>2014-07-21T12:17:39Z</time>
      </trkpt>
      <trkpt lat="68.90103192999959" lon="26.96736479178071">
        <ele>152.50999999999999</ele>
        <time>2014-07-21T12:17:52Z</time>
      </trkpt>
      <trkpt lat="68.901084484532475" lon="26.967479875311255">
        <ele>152.50999999999999</ele>
        <time>2014-07-21T12:18:05Z</time>
      </trkpt>
      <trkpt lat="68.901141900569201" lon="26.96762228384614">
        <ele>152.50999999999999</ele>
        <time>2014-07-21T12:18:20Z</time>
      </trkpt>
      <trkpt lat="68.901152042672038" lon="26.967654805630445">
        <ele>152.50999999999999</ele>
        <time>2014-07-21T12:18:22Z</time>
      </trkpt>
      <trkpt lat="68.901235777884722" lon="26.967770308256149">
        <ele>152.99000000000001</ele>
        <time>2014-07-21T12:18:36Z</time>
      </trkpt>
      <trkpt lat="68.901293696835637" lon="26.967980861663818">
        <ele>152.99000000000001</ele>
        <time>2014-07-21T12:18:51Z</time>
      </trkpt>
      <trkpt lat="68.901311969384551" lon="26.968083791434765">
        <ele>152.99000000000001</ele>
        <time>2014-07-21T12:19:03Z</time>
      </trkpt>
      <trkpt lat="68.901370475068688" lon="26.968216560781002">
        <ele>152.50999999999999</ele>
        <time>2014-07-21T12:19:17Z</time>
      </trkpt>
      <trkpt lat="68.90139008872211" lon="26.968690808862448">
        <ele>152.99000000000001</ele>
        <time>2014-07-21T12:19:34Z</time>
      </trkpt>
      <trkpt lat="68.901479775086045" lon="26.969149382784963">
        <ele>152.50999999999999</ele>
        <time>2014-07-21T12:19:52Z</time>
      </trkpt>
      <trkpt lat="68.901544148102403" lon="26.969261784106493">
        <ele>152.50999999999999</ele>
        <time>2014-07-21T12:20:05Z</time>
      </trkpt>
      <trkpt lat="68.901615813374519" lon="26.969569316133857">
        <ele>152.03</ele>
        <time>2014-07-21T12:20:22Z</time>
      </trkpt>
      <trkpt lat="68.901703068986535" lon="26.969982208684087">
        <ele>152.99000000000001</ele>
        <time>2014-07-21T12:20:38Z</time>
      </trkpt>
      <trkpt lat="68.901751432567835" lon="26.970343887805939">
        <ele>152.99000000000001</ele>
        <time>2014-07-21T12:20:52Z</time>
      </trkpt>
      <trkpt lat="68.901769788935781" lon="26.970773292705417">
        <ele>152.99000000000001</ele>
        <time>2014-07-21T12:21:05Z</time>
      </trkpt>
      <trkpt lat="68.901807172223926" lon="26.971240416169167">
        <ele>152.99000000000001</ele>
        <time>2014-07-21T12:21:20Z</time>
      </trkpt>
      <trkpt lat="68.901832737028599" lon="26.971628582105041">
        <ele>153.47</ele>
        <time>2014-07-21T12:21:35Z</time>
      </trkpt>
      <trkpt lat="68.90186651609838" lon="26.972056981176138">
        <ele>152.50999999999999</ele>
        <time>2014-07-21T12:21:52Z</time>
      </trkpt>
      <trkpt lat="68.901943294331431" lon="26.97250415571034">
        <ele>152.03</ele>
        <time>2014-07-21T12:22:09Z</time>
      </trkpt>
      <trkpt lat="68.902030633762479" lon="26.972966250032187">
        <ele>150.58000000000001</ele>
        <time>2014-07-21T12:22:27Z</time>
      </trkpt>
      <trkpt lat="68.902127696201205" lon="26.973452651873231">
        <ele>149.62</ele>
        <time>2014-07-21T12:22:44Z</time>
      </trkpt>
      <trkpt lat="68.902224842458963" lon="26.973885912448168">
        <ele>149.13999999999999</ele>
        <time>2014-07-21T12:23:00Z</time>
      </trkpt>
      <trkpt lat="68.902307152748108" lon="26.974283633753657">
        <ele>149.13999999999999</ele>
        <time>2014-07-21T12:23:15Z</time>
      </trkpt>
      <trkpt lat="68.902298854663968" lon="26.974613042548299">
        <ele>148.66</ele>
        <time>2014-07-21T12:23:27Z</time>
      </trkpt>
      <trkpt lat="68.902304554358125" lon="26.975074047222733">
        <ele>148.66</ele>
        <time>2014-07-21T12:23:46Z</time>
      </trkpt>
      <trkpt lat="68.902328526601195" lon="26.975182425230742">
        <ele>148.66</ele>
        <time>2014-07-21T12:23:52Z</time>
      </trkpt>
      <trkpt lat="68.902347721159458" lon="26.975289126858115">
        <ele>148.66</ele>
        <time>2014-07-21T12:23:56Z</time>
      </trkpt>
      <trkpt lat="68.90244260430336" lon="26.975813414901495">
        <ele>148.18000000000001</ele>
        <time>2014-07-21T12:24:16Z</time>
      </trkpt>
      <trkpt lat="68.90245140530169" lon="26.975861946120858">
        <ele>148.18000000000001</ele>
        <time>2014-07-21T12:24:18Z</time>
      </trkpt>
      <trkpt lat="68.902553077787161" lon="26.976090520620346">
        <ele>147.69999999999999</ele>
        <time>2014-07-21T12:24:33Z</time>
      </trkpt>
      <trkpt lat="68.902567997574806" lon="26.976147266104817">
        <ele>147.69999999999999</ele>
        <time>2014-07-21T12:24:44Z</time>
      </trkpt>
      <trkpt lat="68.902675537392497" lon="26.976307108998299">
        <ele>147.69999999999999</ele>
        <time>2014-07-21T12:25:00Z</time>
      </trkpt>
      <trkpt lat="68.902784669771791" lon="26.976493857800961">
        <ele>148.18000000000001</ele>
        <time>2014-07-21T12:25:16Z</time>
      </trkpt>
      <trkpt lat="68.902837140485644" lon="26.97666241787374">
        <ele>147.69999999999999</ele>
        <time>2014-07-21T12:25:30Z</time>
      </trkpt>
      <trkpt lat="68.902919534593821" lon="26.977020492777228">
        <ele>149.13999999999999</ele>
        <time>2014-07-21T12:25:48Z</time>
      </trkpt>
      <trkpt lat="68.902979465201497" lon="26.977379824966192">
        <ele>149.13999999999999</ele>
        <time>2014-07-21T12:26:02Z</time>
      </trkpt>
      <trkpt lat="68.903011651709676" lon="26.977788945659995">
        <ele>149.62</ele>
        <time>2014-07-21T12:26:17Z</time>
      </trkpt>
      <trkpt lat="68.9030621945858" lon="26.978264534845948">
        <ele>149.62</ele>
        <time>2014-07-21T12:26:34Z</time>
      </trkpt>
      <trkpt lat="68.903134781867266" lon="26.978659573942423">
        <ele>149.62</ele>
        <time>2014-07-21T12:26:50Z</time>
      </trkpt>
      <trkpt lat="68.903176272287965" lon="26.978781530633569">
        <ele>149.62</ele>
        <time>2014-07-21T12:26:55Z</time>
      </trkpt>
      <trkpt lat="68.903288841247559" lon="26.979045560583472">
        <ele>150.09999999999999</ele>
        <time>2014-07-21T12:27:11Z</time>
      </trkpt>
      <trkpt lat="68.903330080211163" lon="26.979444455355406">
        <ele>150.58000000000001</ele>
        <time>2014-07-21T12:27:27Z</time>
      </trkpt>
      <trkpt lat="68.903455305844545" lon="26.979758944362402">
        <ele>151.06</ele>
        <time>2014-07-21T12:27:44Z</time>
      </trkpt>
      <trkpt lat="68.903541220352054" lon="26.980129340663552">
        <ele>151.53999999999999</ele>
        <time>2014-07-21T12:28:00Z</time>
      </trkpt>
      <trkpt lat="68.903630152344704" lon="26.980522703379393">
        <ele>151.53999999999999</ele>
        <time>2014-07-21T12:28:17Z</time>
      </trkpt>
      <trkpt lat="68.903687903657556" lon="26.98091933503747">
        <ele>151.53999999999999</ele>
        <time>2014-07-21T12:28:33Z</time>
      </trkpt>
      <trkpt lat="68.90373894944787" lon="26.98135619983077">
        <ele>151.53999999999999</ele>
        <time>2014-07-21T12:28:49Z</time>
      </trkpt>
      <trkpt lat="68.903813967481256" lon="26.981791807338595">
        <ele>152.03</ele>
        <time>2014-07-21T12:29:05Z</time>
      </trkpt>
      <trkpt lat="68.903962327167392" lon="26.982039911672473">
        <ele>152.03</ele>
        <time>2014-07-21T12:29:22Z</time>
      </trkpt>
      <trkpt lat="68.904103729873896" lon="26.982143176719546">
        <ele>152.50999999999999</ele>
        <time>2014-07-21T12:29:38Z</time>
      </trkpt>
      <trkpt lat="68.904149914160371" lon="26.982160527259111">
        <ele>152.50999999999999</ele>
        <time>2014-07-21T12:29:43Z</time>
      </trkpt>
      <trkpt lat="68.90432090498507" lon="26.982367979362607">
        <ele>152.99000000000001</ele>
        <time>2014-07-21T12:29:59Z</time>
      </trkpt>
      <trkpt lat="68.904490889981389" lon="26.982762096449733">
        <ele>153.47</ele>
        <time>2014-07-21T12:30:18Z</time>
      </trkpt>
      <trkpt lat="68.904638830572367" lon="26.983120087534189">
        <ele>152.99000000000001</ele>
        <time>2014-07-21T12:30:36Z</time>
      </trkpt>
      <trkpt lat="68.904722398146987" lon="26.983306165784597">
        <ele>152.99000000000001</ele>
        <time>2014-07-21T12:30:47Z</time>
      </trkpt>
      <trkpt lat="68.904889533296227" lon="26.983560724183917">
        <ele>152.03</ele>
        <time>2014-07-21T12:31:04Z</time>
      </trkpt>
      <trkpt lat="68.905052896589041" lon="26.983868004754186">
        <ele>151.06</ele>
        <time>2014-07-21T12:31:20Z</time>
      </trkpt>
      <trkpt lat="68.90516571700573" lon="26.984173692762852">
        <ele>151.06</ele>
        <time>2014-07-21T12:31:34Z</time>
      </trkpt>
      <trkpt lat="68.905299995094538" lon="26.984456833451986">
        <ele>150.09999999999999</ele>
        <time>2014-07-21T12:31:52Z</time>
      </trkpt>
      <trkpt lat="68.905478026717901" lon="26.984723713248968">
        <ele>149.62</ele>
        <time>2014-07-21T12:32:09Z</time>
      </trkpt>
      <trkpt lat="68.90563627704978" lon="26.985054295510054">
        <ele>149.62</ele>
        <time>2014-07-21T12:32:27Z</time>
      </trkpt>
      <trkpt lat="68.905731914564967" lon="26.985316397622228">
        <ele>148.66</ele>
        <time>2014-07-21T12:32:43Z</time>
      </trkpt>
      <trkpt lat="68.905877592042089" lon="26.985710095614195">
        <ele>147.69999999999999</ele>
        <time>2014-07-21T12:33:01Z</time>
      </trkpt>
      <trkpt lat="68.906000554561615" lon="26.986018298193812">
        <ele>146.25999999999999</ele>
        <time>2014-07-21T12:33:16Z</time>
      </trkpt>
      <trkpt lat="68.906132318079472" lon="26.986336810514331">
        <ele>145.30000000000001</ele>
        <time>2014-07-21T12:33:32Z</time>
      </trkpt>
      <trkpt lat="68.906268859282136" lon="26.986746685579419">
        <ele>145.30000000000001</ele>
        <time>2014-07-21T12:33:50Z</time>
      </trkpt>
      <trkpt lat="68.906424008309841" lon="26.987008871510625">
        <ele>145.30000000000001</ele>
        <time>2014-07-21T12:34:08Z</time>
      </trkpt>
      <trkpt lat="68.906517550349236" lon="26.987268375232816">
        <ele>144.81999999999999</ele>
        <time>2014-07-21T12:34:20Z</time>
      </trkpt>
      <trkpt lat="68.906559376046062" lon="26.987340962514281">
        <ele>144.81999999999999</ele>
        <time>2014-07-21T12:34:25Z</time>
      </trkpt>
      <trkpt lat="68.906592484563589" lon="26.987411621958017">
        <ele>144.81999999999999</ele>
        <time>2014-07-21T12:34:29Z</time>
      </trkpt>
      <trkpt lat="68.906638501212001" lon="26.987518910318613">
        <ele>144.34</ele>
        <time>2014-07-21T12:34:35Z</time>
      </trkpt>
      <trkpt lat="68.906648978590965" lon="26.98756861500442">
        <ele>144.81999999999999</ele>
        <time>2014-07-21T12:34:37Z</time>
      </trkpt>
      <trkpt lat="68.90670538879931" lon="26.987720914185047">
        <ele>144.34</ele>
        <time>2014-07-21T12:34:44Z</time>
      </trkpt>
      <trkpt lat="68.906770683825016" lon="26.987905902788043">
        <ele>143.84999999999999</ele>
        <time>2014-07-21T12:34:53Z</time>
      </trkpt>
      <trkpt lat="68.906863974407315" lon="26.988221565261483">
        <ele>143.37</ele>
        <time>2014-07-21T12:35:08Z</time>
      </trkpt>
      <trkpt lat="68.906976459547877" lon="26.988469837233424">
        <ele>143.37</ele>
        <time>2014-07-21T12:35:21Z</time>
      </trkpt>
      <trkpt lat="68.907060362398624" lon="26.988716935738921">
        <ele>142.88999999999999</ele>
        <time>2014-07-21T12:35:33Z</time>
      </trkpt>
      <trkpt lat="68.90708215534687" lon="26.988757671788335">
        <ele>142.88999999999999</ele>
        <time>2014-07-21T12:35:36Z</time>
      </trkpt>
      <trkpt lat="68.907108725979924" lon="26.988813914358616">
        <ele>142.88999999999999</ele>
        <time>2014-07-21T12:35:39Z</time>
      </trkpt>
      <trkpt lat="68.907143175601959" lon="26.988822463899851">
        <ele>142.88999999999999</ele>
        <time>2014-07-21T12:35:43Z</time>
      </trkpt>
      <trkpt lat="68.90721408650279" lon="26.988955065608025">
        <ele>143.37</ele>
        <time>2014-07-21T12:35:49Z</time>
      </trkpt>
      <trkpt lat="68.907262366265059" lon="26.9890823867172">
        <ele>143.37</ele>
        <time>2014-07-21T12:35:55Z</time>
      </trkpt>
      <trkpt lat="68.907291283831" lon="26.989136030897498">
        <ele>142.88999999999999</ele>
        <time>2014-07-21T12:35:58Z</time>
      </trkpt>
      <trkpt lat="68.907398739829659" lon="26.989470636472106">
        <ele>142.88999999999999</ele>
        <time>2014-07-21T12:36:12Z</time>
      </trkpt>
      <trkpt lat="68.907516421750188" lon="26.989667108282447">
        <ele>142.88999999999999</ele>
        <time>2014-07-21T12:36:25Z</time>
      </trkpt>
      <trkpt lat="68.907591607421637" lon="26.989693092182279">
        <ele>142.88999999999999</ele>
        <time>2014-07-21T12:36:35Z</time>
      </trkpt>
      <trkpt lat="68.907646676525474" lon="26.989697450771928">
        <ele>142.88999999999999</ele>
        <time>2014-07-21T12:36:41Z</time>
      </trkpt>
      <trkpt lat="68.907687328755856" lon="26.989758722484112">
        <ele>143.37</ele>
        <time>2014-07-21T12:36:46Z</time>
      </trkpt>
      <trkpt lat="68.907787995412946" lon="26.989960893988609">
        <ele>143.37</ele>
        <time>2014-07-21T12:36:58Z</time>
      </trkpt>
      <trkpt lat="68.907803082838655" lon="26.990077402442694">
        <ele>143.37</ele>
        <time>2014-07-21T12:37:08Z</time>
      </trkpt>
      <trkpt lat="68.907793527469039" lon="26.99008259922266">
        <ele>143.37</ele>
        <time>2014-07-21T12:37:20Z</time>
      </trkpt>
      <trkpt lat="68.907808531075716" lon="26.990274796262383">
        <ele>143.37</ele>
        <time>2014-07-21T12:37:33Z</time>
      </trkpt>
      <trkpt lat="68.907887740060687" lon="26.990660028532147">
        <ele>143.84999999999999</ele>
        <time>2014-07-21T12:37:51Z</time>
      </trkpt>
      <trkpt lat="68.907901234924793" lon="26.990733873099089">
        <ele>143.84999999999999</ele>
        <time>2014-07-21T12:38:03Z</time>
      </trkpt>
      <trkpt lat="68.90793040394783" lon="26.990860188379884">
        <ele>143.37</ele>
        <time>2014-07-21T12:38:17Z</time>
      </trkpt>
      <trkpt lat="68.907977091148496" lon="26.991092786192894">
        <ele>143.37</ele>
        <time>2014-07-21T12:38:26Z</time>
      </trkpt>
      <trkpt lat="68.907990250736475" lon="26.991144418716431">
        <ele>143.37</ele>
        <time>2014-07-21T12:38:28Z</time>
      </trkpt>
      <trkpt lat="68.908014222979546" lon="26.991328820586205">
        <ele>143.37</ele>
        <time>2014-07-21T12:38:32Z</time>
      </trkpt>
      <trkpt lat="68.908022353425622" lon="26.991371987387538">
        <ele>143.37</ele>
        <time>2014-07-21T12:38:36Z</time>
      </trkpt>
      <trkpt lat="68.908061916008592" lon="26.991721848025918">
        <ele>143.37</ele>
        <time>2014-07-21T12:38:46Z</time>
      </trkpt>
      <trkpt lat="68.908132156357169" lon="26.992002138867974">
        <ele>143.84999999999999</ele>
        <time>2014-07-21T12:39:02Z</time>
      </trkpt>
      <trkpt lat="68.908174987882376" lon="26.992125101387501">
        <ele>143.84999999999999</ele>
        <time>2014-07-21T12:39:13Z</time>
      </trkpt>
      <trkpt lat="68.908099383115768" lon="26.991892838850617">
        <ele>143.84999999999999</ele>
        <time>2014-07-21T12:39:22Z</time>
      </trkpt>
      <trkpt lat="68.908092342317104" lon="26.9918177369982">
        <ele>143.37</ele>
        <time>2014-07-21T12:39:23Z</time>
      </trkpt>
      <trkpt lat="68.908044314011931" lon="26.991651691496372">
        <ele>143.84999999999999</ele>
        <time>2014-07-21T12:39:29Z</time>
      </trkpt>
      <trkpt lat="68.908007517457008" lon="26.991324545815587">
        <ele>143.84999999999999</ele>
        <time>2014-07-21T12:39:40Z</time>
      </trkpt>
      <trkpt lat="68.907967284321785" lon="26.991104688495398">
        <ele>143.37</ele>
        <time>2014-07-21T12:39:47Z</time>
      </trkpt>
      <trkpt lat="68.907926548272371" lon="26.990877371281385">
        <ele>144.34</ele>
        <time>2014-07-21T12:39:55Z</time>
      </trkpt>
      <trkpt lat="68.907893188297749" lon="26.990627171471715">
        <ele>143.84999999999999</ele>
        <time>2014-07-21T12:40:03Z</time>
      </trkpt>
      <trkpt lat="68.907853290438652" lon="26.990442434325814">
        <ele>143.84999999999999</ele>
        <time>2014-07-21T12:40:11Z</time>
      </trkpt>
      <trkpt lat="68.907804507762194" lon="26.990147558972239">
        <ele>143.84999999999999</ele>
        <time>2014-07-21T12:40:21Z</time>
      </trkpt>
      <trkpt lat="68.907781960442662" lon="26.990078492090106">
        <ele>143.37</ele>
        <time>2014-07-21T12:40:25Z</time>
      </trkpt>
      <trkpt lat="68.90779159963131" lon="26.989858634769917">
        <ele>143.84999999999999</ele>
        <time>2014-07-21T12:40:36Z</time>
      </trkpt>
      <trkpt lat="68.907825378701091" lon="26.989569123834372">
        <ele>144.81999999999999</ele>
        <time>2014-07-21T12:40:45Z</time>
      </trkpt>
      <trkpt lat="68.90783560462296" lon="26.989536853507161">
        <ele>144.81999999999999</ele>
        <time>2014-07-21T12:40:46Z</time>
      </trkpt>
      <trkpt lat="68.9078473392874" lon="26.989462338387966">
        <ele>145.30000000000001</ele>
        <time>2014-07-21T12:40:56Z</time>
      </trkpt>
      <trkpt lat="68.907889919355512" lon="26.989294197410345">
        <ele>145.78</ele>
        <time>2014-07-21T12:41:08Z</time>
      </trkpt>
      <trkpt lat="68.907896792516112" lon="26.989265028387308">
        <ele>145.78</ele>
        <time>2014-07-21T12:41:10Z</time>
      </trkpt>
      <trkpt lat="68.908000811934471" lon="26.98909655213356">
        <ele>146.25999999999999</ele>
        <time>2014-07-21T12:41:21Z</time>
      </trkpt>
      <trkpt lat="68.908114470541477" lon="26.989004518836737">
        <ele>147.22</ele>
        <time>2014-07-21T12:41:34Z</time>
      </trkpt>
      <trkpt lat="68.908225614577532" lon="26.988898236304522">
        <ele>148.18000000000001</ele>
        <time>2014-07-21T12:41:49Z</time>
      </trkpt>
      <trkpt lat="68.908260734751821" lon="26.988847777247429">
        <ele>148.66</ele>
        <time>2014-07-21T12:41:54Z</time>
      </trkpt>
      <trkpt lat="68.908383697271347" lon="26.988674439489841">
        <ele>149.62</ele>
        <time>2014-07-21T12:42:08Z</time>
      </trkpt>
      <trkpt lat="68.908475646749139" lon="26.988559272140265">
        <ele>150.09999999999999</ele>
        <time>2014-07-21T12:42:19Z</time>
      </trkpt>
      <trkpt lat="68.908588215708733" lon="26.988430609926581">
        <ele>151.06</ele>
        <time>2014-07-21T12:42:31Z</time>
      </trkpt>
      <trkpt lat="68.908682176843286" lon="26.988364141434431">
        <ele>152.03</ele>
        <time>2014-07-21T12:42:42Z</time>
      </trkpt>
      <trkpt lat="68.908668598160148" lon="26.988325836136937">
        <ele>152.03</ele>
        <time>2014-07-21T12:42:54Z</time>
      </trkpt>
      <trkpt lat="68.90850841999054" lon="26.988311000168324">
        <ele>150.58000000000001</ele>
        <time>2014-07-21T12:43:09Z</time>
      </trkpt>
      <trkpt lat="68.908357042819262" lon="26.988180242478848">
        <ele>149.62</ele>
        <time>2014-07-21T12:43:23Z</time>
      </trkpt>
      <trkpt lat="68.908290322870016" lon="26.98814763687551">
        <ele>149.13999999999999</ele>
        <time>2014-07-21T12:43:28Z</time>
      </trkpt>
      <trkpt lat="68.908107597380877" lon="26.988227935507894">
        <ele>147.69999999999999</ele>
        <time>2014-07-21T12:43:43Z</time>
      </trkpt>
      <trkpt lat="68.907957058399916" lon="26.98832742869854">
        <ele>146.25999999999999</ele>
        <time>2014-07-21T12:43:57Z</time>
      </trkpt>
      <trkpt lat="68.907753713428974" lon="26.988178566098213">
        <ele>146.25999999999999</ele>
        <time>2014-07-21T12:44:13Z</time>
      </trkpt>
      <trkpt lat="68.907611640170217" lon="26.988107487559319">
        <ele>145.78</ele>
        <time>2014-07-21T12:44:24Z</time>
      </trkpt>
      <trkpt lat="68.907452635467052" lon="26.98805334046483">
        <ele>146.25999999999999</ele>
        <time>2014-07-21T12:44:38Z</time>
      </trkpt>
      <trkpt lat="68.90734501183033" lon="26.987951919436455">
        <ele>145.30000000000001</ele>
        <time>2014-07-21T12:44:51Z</time>
      </trkpt>
      <trkpt lat="68.907196987420321" lon="26.988041941076517">
        <ele>145.30000000000001</ele>
        <time>2014-07-21T12:45:05Z</time>
      </trkpt>
      <trkpt lat="68.907072767615318" lon="26.988176302984357">
        <ele>143.84999999999999</ele>
        <time>2014-07-21T12:45:18Z</time>
      </trkpt>
      <trkpt lat="68.906896077096462" lon="26.988286525011063">
        <ele>142.88999999999999</ele>
        <time>2014-07-21T12:45:35Z</time>
      </trkpt>
      <trkpt lat="68.906910410150886" lon="26.988215111196041">
        <ele>143.37</ele>
        <time>2014-07-21T12:45:46Z</time>
      </trkpt>
      <trkpt lat="68.907006550580263" lon="26.988053089007735">
        <ele>142.88999999999999</ele>
        <time>2014-07-21T12:46:03Z</time>
      </trkpt>
      <trkpt lat="68.907159604132175" lon="26.987900203093886">
        <ele>144.34</ele>
        <time>2014-07-21T12:46:20Z</time>
      </trkpt>
      <trkpt lat="68.907338557764888" lon="26.987740024924278">
        <ele>144.81999999999999</ele>
        <time>2014-07-21T12:46:38Z</time>
      </trkpt>
      <trkpt lat="68.90748574398458" lon="26.987848822027445">
        <ele>145.30000000000001</ele>
        <time>2014-07-21T12:46:53Z</time>
      </trkpt>
      <trkpt lat="68.90763234347105" lon="26.987938089296222">
        <ele>145.30000000000001</ele>
        <time>2014-07-21T12:47:08Z</time>
      </trkpt>
      <trkpt lat="68.907779864966869" lon="26.988050574436784">
        <ele>145.30000000000001</ele>
        <time>2014-07-21T12:47:24Z</time>
      </trkpt>
      <trkpt lat="68.907924788072705" lon="26.988157108426094">
        <ele>145.78</ele>
        <time>2014-07-21T12:47:41Z</time>
      </trkpt>
      <trkpt lat="68.908079853281379" lon="26.988125257194042">
        <ele>146.25999999999999</ele>
        <time>2014-07-21T12:47:56Z</time>
      </trkpt>
      <trkpt lat="68.908181022852659" lon="26.987993745133281">
        <ele>147.22</ele>
        <time>2014-07-21T12:48:10Z</time>
      </trkpt>
      <trkpt lat="68.908359222114086" lon="26.987988715991378">
        <ele>148.18000000000001</ele>
        <time>2014-07-21T12:48:29Z</time>
      </trkpt>
      <trkpt lat="68.908497607335448" lon="26.988148055970669">
        <ele>149.13999999999999</ele>
        <time>2014-07-21T12:48:45Z</time>
      </trkpt>
      <trkpt lat="68.908623671159148" lon="26.988257523626089">
        <ele>150.09999999999999</ele>
        <time>2014-07-21T12:49:02Z</time>
      </trkpt>
      <trkpt lat="68.908800864592195" lon="26.988089885562658">
        <ele>151.53999999999999</ele>
        <time>2014-07-21T12:49:22Z</time>
      </trkpt>
      <trkpt lat="68.908945117145777" lon="26.987960217520595">
        <ele>152.99000000000001</ele>
        <time>2014-07-21T12:49:40Z</time>
      </trkpt>
      <trkpt lat="68.909080317243934" lon="26.987957619130611">
        <ele>153.47</ele>
        <time>2014-07-21T12:49:55Z</time>
      </trkpt>
      <trkpt lat="68.909208728000522" lon="26.987966671586037">
        <ele>153.94999999999999</ele>
        <time>2014-07-21T12:50:09Z</time>
      </trkpt>
      <trkpt lat="68.909240746870637" lon="26.987990811467171">
        <ele>152.99000000000001</ele>
        <time>2014-07-21T12:50:12Z</time>
      </trkpt>
      <trkpt lat="68.909391704946756" lon="26.988152749836445">
        <ele>151.53999999999999</ele>
        <time>2014-07-21T12:50:26Z</time>
      </trkpt>
      <trkpt lat="68.909532353281975" lon="26.988336900249124">
        <ele>151.53999999999999</ele>
        <time>2014-07-21T12:50:38Z</time>
      </trkpt>
      <trkpt lat="68.909554397687316" lon="26.988337654620409">
        <ele>151.06</ele>
        <time>2014-07-21T12:50:40Z</time>
      </trkpt>
      <trkpt lat="68.909589936956763" lon="26.988440165296197">
        <ele>151.06</ele>
        <time>2014-07-21T12:50:44Z</time>
      </trkpt>
      <trkpt lat="68.909646011888981" lon="26.988530606031418">
        <ele>151.06</ele>
        <time>2014-07-21T12:50:49Z</time>
      </trkpt>
      <trkpt lat="68.909696135669947" lon="26.988586597144604">
        <ele>151.06</ele>
        <time>2014-07-21T12:50:53Z</time>
      </trkpt>
      <trkpt lat="68.909827060997486" lon="26.988771250471473">
        <ele>150.58000000000001</ele>
        <time>2014-07-21T12:51:06Z</time>
      </trkpt>
      <trkpt lat="68.910026550292969" lon="26.989046595990658">
        <ele>150.58000000000001</ele>
        <time>2014-07-21T12:51:24Z</time>
      </trkpt>
      <trkpt lat="68.910126127302647" lon="26.989241056144238">
        <ele>150.58000000000001</ele>
        <time>2014-07-21T12:51:34Z</time>
      </trkpt>
      <trkpt lat="68.910282282158732" lon="26.989547582343221">
        <ele>150.58000000000001</ele>
        <time>2014-07-21T12:51:50Z</time>
      </trkpt>
      <trkpt lat="68.910402646288276" lon="26.989771295338869">
        <ele>150.58000000000001</ele>
        <time>2014-07-21T12:52:04Z</time>
      </trkpt>
      <trkpt lat="68.910538349300623" lon="26.990007748827338">
        <ele>151.53999999999999</ele>
        <time>2014-07-21T12:52:18Z</time>
      </trkpt>
      <trkpt lat="68.910578247159719" lon="26.99005133472383">
        <ele>152.03</ele>
        <time>2014-07-21T12:52:22Z</time>
      </trkpt>
      <trkpt lat="68.910744208842516" lon="26.990371691063046">
        <ele>152.03</ele>
        <time>2014-07-21T12:52:41Z</time>
      </trkpt>
      <trkpt lat="68.910899693146348" lon="26.990608312189579">
        <ele>152.99000000000001</ele>
        <time>2014-07-21T12:52:59Z</time>
      </trkpt>
      <trkpt lat="68.911009998992085" lon="26.990833785384893">
        <ele>153.47</ele>
        <time>2014-07-21T12:53:12Z</time>
      </trkpt>
      <trkpt lat="68.911081328988075" lon="26.991027323529124">
        <ele>153.94999999999999</ele>
        <time>2014-07-21T12:53:21Z</time>
      </trkpt>
      <trkpt lat="68.911137320101261" lon="26.991207534447312">
        <ele>153.47</ele>
        <time>2014-07-21T12:53:28Z</time>
      </trkpt>
      <trkpt lat="68.911165986210108" lon="26.991364695131779">
        <ele>153.94999999999999</ele>
        <time>2014-07-21T12:53:32Z</time>
      </trkpt>
      <trkpt lat="68.911220468580723" lon="26.99147617444396">
        <ele>153.47</ele>
        <time>2014-07-21T12:53:39Z</time>
      </trkpt>
      <trkpt lat="68.911285344511271" lon="26.99164523743093">
        <ele>153.94999999999999</ele>
        <time>2014-07-21T12:53:47Z</time>
      </trkpt>
      <trkpt lat="68.91132390126586" lon="26.99169360101223">
        <ele>153.94999999999999</ele>
        <time>2014-07-21T12:53:50Z</time>
      </trkpt>
      <trkpt lat="68.911452731117606" lon="26.991710280999541">
        <ele>153.94999999999999</ele>
        <time>2014-07-21T12:54:01Z</time>
      </trkpt>
      <trkpt lat="68.911595474928617" lon="26.991727044805884">
        <ele>153.94999999999999</ele>
        <time>2014-07-21T12:54:13Z</time>
      </trkpt>
      <trkpt lat="68.911713575944304" lon="26.991694690659642">
        <ele>154.91</ele>
        <time>2014-07-21T12:54:24Z</time>
      </trkpt>
      <trkpt lat="68.911761017516255" lon="26.991673149168491">
        <ele>154.91</ele>
        <time>2014-07-21T12:54:27Z</time>
      </trkpt>
      <trkpt lat="68.911795299500227" lon="26.991593018174171">
        <ele>154.43000000000001</ele>
        <time>2014-07-21T12:54:31Z</time>
      </trkpt>
      <trkpt lat="68.911942904815078" lon="26.991599136963487">
        <ele>154.91</ele>
        <time>2014-07-21T12:54:42Z</time>
      </trkpt>
      <trkpt lat="68.911995207890868" lon="26.991639537736773">
        <ele>154.91</ele>
        <time>2014-07-21T12:54:46Z</time>
      </trkpt>
      <trkpt lat="68.912131581455469" lon="26.991712711751461">
        <ele>155.87</ele>
        <time>2014-07-21T12:55:00Z</time>
      </trkpt>
      <trkpt lat="68.912207018584013" lon="26.991790747269988">
        <ele>156.34999999999999</ele>
        <time>2014-07-21T12:55:08Z</time>
      </trkpt>
      <trkpt lat="68.912325706332922" lon="26.992005323991179">
        <ele>156.34999999999999</ele>
        <time>2014-07-21T12:55:19Z</time>
      </trkpt>
      <trkpt lat="68.912345822900534" lon="26.992023596540093">
        <ele>155.87</ele>
        <time>2014-07-21T12:55:21Z</time>
      </trkpt>
      <trkpt lat="68.912450848147273" lon="26.992310341447592">
        <ele>156.34999999999999</ele>
        <time>2014-07-21T12:55:32Z</time>
      </trkpt>
      <trkpt lat="68.912491332739592" lon="26.992420228198171">
        <ele>155.87</ele>
        <time>2014-07-21T12:55:36Z</time>
      </trkpt>
      <trkpt lat="68.912614714354277" lon="26.992822056636214">
        <ele>154.91</ele>
        <time>2014-07-21T12:55:51Z</time>
      </trkpt>
      <trkpt lat="68.912649750709534" lon="26.992858937010169">
        <ele>155.38999999999999</ele>
        <time>2014-07-21T12:55:54Z</time>
      </trkpt>
      <trkpt lat="68.912773635238409" lon="26.993044931441545">
        <ele>154.91</ele>
        <time>2014-07-21T12:56:06Z</time>
      </trkpt>
      <trkpt lat="68.912786711007357" lon="26.993058007210493">
        <ele>154.91</ele>
        <time>2014-07-21T12:56:07Z</time>
      </trkpt>
      <trkpt lat="68.912830548360944" lon="26.99313847348094">
        <ele>154.91</ele>
        <time>2014-07-21T12:56:10Z</time>
      </trkpt>
      <trkpt lat="68.912841528654099" lon="26.99318247847259">
        <ele>154.91</ele>
        <time>2014-07-21T12:56:11Z</time>
      </trkpt>
      <trkpt lat="68.912940854206681" lon="26.993306279182434">
        <ele>154.43000000000001</ele>
        <time>2014-07-21T12:56:20Z</time>
      </trkpt>
      <trkpt lat="68.912980919703841" lon="26.993334107100964">
        <ele>154.43000000000001</ele>
        <time>2014-07-21T12:56:24Z</time>
      </trkpt>
      <trkpt lat="68.912992067635059" lon="26.99335346929729">
        <ele>153.94999999999999</ele>
        <time>2014-07-21T12:56:25Z</time>
      </trkpt>
      <trkpt lat="68.913003131747246" lon="26.993385991081595">
        <ele>153.94999999999999</ele>
        <time>2014-07-21T12:56:26Z</time>
      </trkpt>
      <trkpt lat="68.913010759279132" lon="26.993419853970408">
        <ele>153.47</ele>
        <time>2014-07-21T12:56:27Z</time>
      </trkpt>
      <trkpt lat="68.913059374317527" lon="26.993483640253544">
        <ele>153.47</ele>
        <time>2014-07-21T12:56:32Z</time>
      </trkpt>
      <trkpt lat="68.913072785362601" lon="26.993492776528001">
        <ele>153.47</ele>
        <time>2014-07-21T12:56:33Z</time>
      </trkpt>
      <trkpt lat="68.913086531683803" lon="26.993503756821156">
        <ele>152.99000000000001</ele>
        <time>2014-07-21T12:56:34Z</time>
      </trkpt>
      <trkpt lat="68.913296917453408" lon="26.993705090135336">
        <ele>152.03</ele>
        <time>2014-07-21T12:56:52Z</time>
      </trkpt>
      <trkpt lat="68.91338836401701" lon="26.994052520021796">
        <ele>151.06</ele>
        <time>2014-07-21T12:57:05Z</time>
      </trkpt>
      <trkpt lat="68.913390124216676" lon="26.994089400395751">
        <ele>151.53999999999999</ele>
        <time>2014-07-21T12:57:06Z</time>
      </trkpt>
      <trkpt lat="68.91339766792953" lon="26.994205741211772">
        <ele>151.53999999999999</ele>
        <time>2014-07-21T12:57:10Z</time>
      </trkpt>
      <trkpt lat="68.913389621302485" lon="26.994352927431464">
        <ele>152.03</ele>
        <time>2014-07-21T12:57:15Z</time>
      </trkpt>
      <trkpt lat="68.913390040397644" lon="26.994388634338975">
        <ele>151.53999999999999</ele>
        <time>2014-07-21T12:57:16Z</time>
      </trkpt>
      <trkpt lat="68.91336346976459" lon="26.99461804702878">
        <ele>152.99000000000001</ele>
        <time>2014-07-21T12:57:30Z</time>
      </trkpt>
      <trkpt lat="68.913341592997313" lon="26.994596589356661">
        <ele>153.47</ele>
        <time>2014-07-21T12:57:43Z</time>
      </trkpt>
      <trkpt lat="68.91331410035491" lon="26.994542609900236">
        <ele>153.47</ele>
        <time>2014-07-21T12:57:58Z</time>
      </trkpt>
      <trkpt lat="68.913314016535878" lon="26.994548561051488">
        <ele>153.47</ele>
        <time>2014-07-21T12:58:17Z</time>
      </trkpt>
      <trkpt lat="68.913334049284458" lon="26.994899259880185">
        <ele>154.43000000000001</ele>
        <time>2014-07-21T12:58:32Z</time>
      </trkpt>
      <trkpt lat="68.913245787844062" lon="26.995145017281175">
        <ele>153.94999999999999</ele>
        <time>2014-07-21T12:58:47Z</time>
      </trkpt>
      <trkpt lat="68.913178481161594" lon="26.995223890990019">
        <ele>152.99000000000001</ele>
        <time>2014-07-21T12:58:54Z</time>
      </trkpt>
      <trkpt lat="68.913164231926203" lon="26.995232859626412">
        <ele>153.47</ele>
        <time>2014-07-21T12:58:55Z</time>
      </trkpt>
      <trkpt lat="68.913150820881128" lon="26.995243923738599">
        <ele>152.99000000000001</ele>
        <time>2014-07-21T12:58:56Z</time>
      </trkpt>
      <trkpt lat="68.913042945787311" lon="26.99542379938066">
        <ele>154.43000000000001</ele>
        <time>2014-07-21T12:59:11Z</time>
      </trkpt>
      <trkpt lat="68.91293247230351" lon="26.995676010847092">
        <ele>153.47</ele>
        <time>2014-07-21T12:59:26Z</time>
      </trkpt>
      <trkpt lat="68.912843875586987" lon="26.995885726064444">
        <ele>154.91</ele>
        <time>2014-07-21T12:59:43Z</time>
      </trkpt>
      <trkpt lat="68.912792494520545" lon="26.996142296120524">
        <ele>157.31</ele>
        <time>2014-07-21T13:00:03Z</time>
      </trkpt>
      <trkpt lat="68.912739772349596" lon="26.996358297765255">
        <ele>158.75</ele>
        <time>2014-07-21T13:00:20Z</time>
      </trkpt>
      <trkpt lat="68.912658467888832" lon="26.99659114703536">
        <ele>159.72</ele>
        <time>2014-07-21T13:00:34Z</time>
      </trkpt>
      <trkpt lat="68.912587640807033" lon="26.996740009635687">
        <ele>160.68000000000001</ele>
        <time>2014-07-21T13:00:47Z</time>
      </trkpt>
      <trkpt lat="68.912505246698856" lon="26.996884513646364">
        <ele>162.12</ele>
        <time>2014-07-21T13:01:01Z</time>
      </trkpt>
      <trkpt lat="68.912424026057124" lon="26.997182657942176">
        <ele>162.12</ele>
        <time>2014-07-21T13:01:17Z</time>
      </trkpt>
      <trkpt lat="68.912332076579332" lon="26.997377872467041">
        <ele>162.12</ele>
        <time>2014-07-21T13:01:31Z</time>
      </trkpt>
      <trkpt lat="68.912269715219736" lon="26.997641986235976">
        <ele>162.12</ele>
        <time>2014-07-21T13:01:46Z</time>
      </trkpt>
      <trkpt lat="68.912214143201709" lon="26.99798908084631">
        <ele>162.59999999999999</ele>
        <time>2014-07-21T13:02:00Z</time>
      </trkpt>
      <trkpt lat="68.912171395495534" lon="26.998352352529764">
        <ele>162.59999999999999</ele>
        <time>2014-07-21T13:02:15Z</time>
      </trkpt>
      <trkpt lat="68.912200899794698" lon="26.99847967363894">
        <ele>162.12</ele>
        <time>2014-07-21T13:02:23Z</time>
      </trkpt>
      <trkpt lat="68.91221565194428" lon="26.998650999739766">
        <ele>162.12</ele>
        <time>2014-07-21T13:02:28Z</time>
      </trkpt>
      <trkpt lat="68.912199307233095" lon="26.998886531218886">
        <ele>162.12</ele>
        <time>2014-07-21T13:02:36Z</time>
      </trkpt>
      <trkpt lat="68.912190925329924" lon="26.999219879508018">
        <ele>160.68000000000001</ele>
        <time>2014-07-21T13:02:48Z</time>
      </trkpt>
      <trkpt lat="68.912148848176003" lon="26.999570159241557">
        <ele>158.27000000000001</ele>
        <time>2014-07-21T13:03:01Z</time>
      </trkpt>
      <trkpt lat="68.912071902304888" lon="26.999810803681612">
        <ele>154.91</ele>
        <time>2014-07-21T13:03:14Z</time>
      </trkpt>
      <trkpt lat="68.911982635036111" lon="27.00006770901382">
        <ele>152.03</ele>
        <time>2014-07-21T13:03:28Z</time>
      </trkpt>
      <trkpt lat="68.911911053583026" lon="27.000416563823819">
        <ele>150.58000000000001</ele>
        <time>2014-07-21T13:03:43Z</time>
      </trkpt>
      <trkpt lat="68.911845088005066" lon="27.000720910727978">
        <ele>148.66</ele>
        <time>2014-07-21T13:03:58Z</time>
      </trkpt>
      <trkpt lat="68.911764705553651" lon="27.001003632321954">
        <ele>147.22</ele>
        <time>2014-07-21T13:04:12Z</time>
      </trkpt>
      <trkpt lat="68.911758670583367" lon="27.001157607883215">
        <ele>147.69999999999999</ele>
        <time>2014-07-21T13:04:17Z</time>
      </trkpt>
      <trkpt lat="68.911758083850145" lon="27.001296998932958">
        <ele>147.22</ele>
        <time>2014-07-21T13:04:22Z</time>
      </trkpt>
      <trkpt lat="68.911673845723271" lon="27.001571841537952">
        <ele>147.22</ele>
        <time>2014-07-21T13:04:39Z</time>
      </trkpt>
      <trkpt lat="68.911602180451155" lon="27.001609392464161">
        <ele>147.69999999999999</ele>
        <time>2014-07-21T13:04:46Z</time>
      </trkpt>
      <trkpt lat="68.911515008658171" lon="27.001656331121922">
        <ele>147.69999999999999</ele>
        <time>2014-07-21T13:04:55Z</time>
      </trkpt>
      <trkpt lat="68.911423813551664" lon="27.00164845213294">
        <ele>148.18000000000001</ele>
        <time>2014-07-21T13:05:04Z</time>
      </trkpt>
      <trkpt lat="68.911420376971364" lon="27.001664796844125">
        <ele>147.22</ele>
        <time>2014-07-21T13:05:05Z</time>
      </trkpt>
      <trkpt lat="68.911350220441818" lon="27.001829165965319">
        <ele>147.22</ele>
        <time>2014-07-21T13:05:14Z</time>
      </trkpt>
      <trkpt lat="68.911329433321953" lon="27.002010550349951">
        <ele>146.74000000000001</ele>
        <time>2014-07-21T13:05:22Z</time>
      </trkpt>
      <trkpt lat="68.911278806626797" lon="27.00218204408884">
        <ele>146.74000000000001</ele>
        <time>2014-07-21T13:05:29Z</time>
      </trkpt>
      <trkpt lat="68.911251565441489" lon="27.002214733511209">
        <ele>146.74000000000001</ele>
        <time>2014-07-21T13:05:31Z</time>
      </trkpt>
      <trkpt lat="68.911230275407434" lon="27.002289667725563">
        <ele>146.25999999999999</ele>
        <time>2014-07-21T13:05:34Z</time>
      </trkpt>
      <trkpt lat="68.911211751401424" lon="27.00236426666379">
        <ele>146.74000000000001</ele>
        <time>2014-07-21T13:05:38Z</time>
      </trkpt>
      <trkpt lat="68.911131201311946" lon="27.002552943304181">
        <ele>145.78</ele>
        <time>2014-07-21T13:05:49Z</time>
      </trkpt>
      <trkpt lat="68.911058781668544" lon="27.002773806452751">
        <ele>145.30000000000001</ele>
        <time>2014-07-21T13:06:01Z</time>
      </trkpt>
      <trkpt lat="68.911049226298928" lon="27.00284312479198">
        <ele>145.30000000000001</ele>
        <time>2014-07-21T13:06:03Z</time>
      </trkpt>
      <trkpt lat="68.910998599603772" lon="27.003317372873425">
        <ele>144.81999999999999</ele>
        <time>2014-07-21T13:06:19Z</time>
      </trkpt>
      <trkpt lat="68.910855855792761" lon="27.003480736166239">
        <ele>143.84999999999999</ele>
        <time>2014-07-21T13:06:35Z</time>
      </trkpt>
      <trkpt lat="68.910740269348025" lon="27.003603111952543">
        <ele>144.34</ele>
        <time>2014-07-21T13:06:48Z</time>
      </trkpt>
      <trkpt lat="68.9106017164886" lon="27.003528764471412">
        <ele>144.34</ele>
        <time>2014-07-21T13:07:04Z</time>
      </trkpt>
      <trkpt lat="68.910432402044535" lon="27.00359414331615">
        <ele>143.37</ele>
        <time>2014-07-21T13:07:19Z</time>
      </trkpt>
      <trkpt lat="68.910276750102639" lon="27.003743341192603">
        <ele>141.93000000000001</ele>
        <time>2014-07-21T13:07:35Z</time>
      </trkpt>
      <trkpt lat="68.910219753161073" lon="27.003807630389929">
        <ele>141.44999999999999</ele>
        <time>2014-07-21T13:07:40Z</time>
      </trkpt>
      <trkpt lat="68.91014976426959" lon="27.003838224336505">
        <ele>141.44999999999999</ele>
        <time>2014-07-21T13:07:46Z</time>
      </trkpt>
      <trkpt lat="68.910018336027861" lon="27.004005946218967">
        <ele>140.49000000000001</ele>
        <time>2014-07-21T13:08:01Z</time>
      </trkpt>
      <trkpt lat="68.909999979659915" lon="27.004031175747514">
        <ele>140.49000000000001</ele>
        <time>2014-07-21T13:08:03Z</time>
      </trkpt>
      <trkpt lat="68.909914400428534" lon="27.004443062469363">
        <ele>139.53</ele>
        <time>2014-07-21T13:08:18Z</time>
      </trkpt>
      <trkpt lat="68.909804848954082" lon="27.004926111549139">
        <ele>138.09</ele>
        <time>2014-07-21T13:08:35Z</time>
      </trkpt>
      <trkpt lat="68.909718850627542" lon="27.005316959694028">
        <ele>137.61000000000001</ele>
        <time>2014-07-21T13:08:50Z</time>
      </trkpt>
      <trkpt lat="68.909675432369113" lon="27.005602279677987">
        <ele>137.13</ele>
        <time>2014-07-21T13:09:01Z</time>
      </trkpt>
      <trkpt lat="68.909659925848246" lon="27.00582180172205">
        <ele>136.63999999999999</ele>
        <time>2014-07-21T13:09:06Z</time>
      </trkpt>
      <trkpt lat="68.909726478159428" lon="27.006282471120358">
        <ele>136.16</ele>
        <time>2014-07-21T13:09:21Z</time>
      </trkpt>
      <trkpt lat="68.909739553928375" lon="27.006350448355079">
        <ele>136.16</ele>
        <time>2014-07-21T13:09:24Z</time>
      </trkpt>
      <trkpt lat="68.90973980538547" lon="27.006508447229862">
        <ele>135.68000000000001</ele>
        <time>2014-07-21T13:09:29Z</time>
      </trkpt>
      <trkpt lat="68.909752126783133" lon="27.006656220182776">
        <ele>135.19999999999999</ele>
        <time>2014-07-21T13:09:34Z</time>
      </trkpt>
      <trkpt lat="68.909734189510345" lon="27.006884459406137">
        <ele>135.68000000000001</ele>
        <time>2014-07-21T13:09:42Z</time>
      </trkpt>
      <trkpt lat="68.909752629697323" lon="27.007105741649866">
        <ele>134.72</ele>
        <time>2014-07-21T13:09:49Z</time>
      </trkpt>
      <trkpt lat="68.909755060449243" lon="27.007240438833833">
        <ele>134.72</ele>
        <time>2014-07-21T13:09:54Z</time>
      </trkpt>
      <trkpt lat="68.909777607768774" lon="27.007398940622807">
        <ele>134.72</ele>
        <time>2014-07-21T13:09:59Z</time>
      </trkpt>
      <trkpt lat="68.909813985228539" lon="27.007639752700925">
        <ele>135.19999999999999</ele>
        <time>2014-07-21T13:10:10Z</time>
      </trkpt>
      <trkpt lat="68.909887494519353" lon="27.00775483623147">
        <ele>135.68000000000001</ele>
        <time>2014-07-21T13:10:25Z</time>
      </trkpt>
      <trkpt lat="68.909987658262253" lon="27.008052812889218">
        <ele>135.19999999999999</ele>
        <time>2014-07-21T13:10:38Z</time>
      </trkpt>
      <trkpt lat="68.910074410960078" lon="27.008478529751301">
        <ele>134.72</ele>
        <time>2014-07-21T13:10:54Z</time>
      </trkpt>
      <trkpt lat="68.910147417336702" lon="27.008943725377321">
        <ele>133.28</ele>
        <time>2014-07-21T13:11:10Z</time>
      </trkpt>
      <trkpt lat="68.910192595794797" lon="27.009216053411365">
        <ele>132.80000000000001</ele>
        <time>2014-07-21T13:11:19Z</time>
      </trkpt>
      <trkpt lat="68.910299800336361" lon="27.00967756099999">
        <ele>132.80000000000001</ele>
        <time>2014-07-21T13:11:37Z</time>
      </trkpt>
      <trkpt lat="68.910416224971414" lon="27.009935388341546">
        <ele>133.28</ele>
        <time>2014-07-21T13:11:52Z</time>
      </trkpt>
      <trkpt lat="68.910554694011807" lon="27.010234203189611">
        <ele>133.28</ele>
        <time>2014-07-21T13:12:10Z</time>
      </trkpt>
      <trkpt lat="68.910720571875572" lon="27.010281393304467">
        <ele>133.75999999999999</ele>
        <time>2014-07-21T13:12:29Z</time>
      </trkpt>
      <trkpt lat="68.910802211612463" lon="27.010458083823323">
        <ele>134.72</ele>
        <time>2014-07-21T13:12:42Z</time>
      </trkpt>
      <trkpt lat="68.910845294594765" lon="27.010622788220644">
        <ele>133.75999999999999</ele>
        <time>2014-07-21T13:12:53Z</time>
      </trkpt>
      <trkpt lat="68.910817634314299" lon="27.010634187608957">
        <ele>134.72</ele>
        <time>2014-07-21T13:13:03Z</time>
      </trkpt>
      <trkpt lat="68.910824004560709" lon="27.010642820969224">
        <ele>134.72</ele>
        <time>2014-07-21T13:13:04Z</time>
      </trkpt>
    </trkseg>
  </trk>

</gpx>